EJU41HA GVAC-LPPT
Flight info
| Callsign | EJU41HA |
|---|---|
| Flight time | N/A |
| Altitude | 37000 |
| Route | DIMKI1A DIMKI DCT IPERA N873 LIMAL/N0442F380 DCT UDATI DCT ODEGI DCT LOMAS DCT GDV DCT VASTO DCT BAROK DCT VATZI |
| Aircraft | A20N/M-SDE2E3FGHIJ1RWXYZ/LB1G1 |
Departure
| Time | 2026-04-21 10:40 |
|---|---|
| Airport | Amílcar Cabral International Airport (GVAC) |
Arrival
| Time | N/A |
|---|---|
| Airport | Lisbon Humberto Delgado Airport (LPPT) |
| Time | Latitude | Longitude | Altitude | Speed | Heading |
|---|---|---|---|---|---|
| 2026-04-21 10:05 | 16.73495 | -22.94493 | 185 ft | 0 kts | 89° |
| 2026-04-21 10:27 | 16.73495 | -22.94499 | 184 ft | 2 kts | 89° |
| 2026-04-21 10:27 | 16.73495 | -22.94515 | 184 ft | 2 kts | 89° |
| 2026-04-21 10:28 | 16.73495 | -22.94530 | 184 ft | 2 kts | 89° |
| 2026-04-21 10:28 | 16.73495 | -22.94546 | 184 ft | 2 kts | 89° |
| 2026-04-21 10:28 | 16.73495 | -22.94562 | 184 ft | 2 kts | 89° |
| 2026-04-21 10:28 | 16.73495 | -22.94578 | 184 ft | 2 kts | 110° |
| 2026-04-21 10:29 | 16.73503 | -22.94590 | 184 ft | 2 kts | 142° |
| 2026-04-21 10:29 | 16.73517 | -22.94597 | 184 ft | 1 kts | 173° |
| 2026-04-21 10:29 | 16.73523 | -22.94597 | 183 ft | 1 kts | 182° |
| 2026-04-21 10:29 | 16.73526 | -22.94597 | 183 ft | 0 kts | 180° |
| 2026-04-21 10:33 | 16.73519 | -22.94597 | 183 ft | 2 kts | 179° |
| 2026-04-21 10:33 | 16.73496 | -22.94597 | 184 ft | 4 kts | 180° |
| 2026-04-21 10:33 | 16.73457 | -22.94597 | 185 ft | 6 kts | 179° |
| 2026-04-21 10:34 | 16.73402 | -22.94595 | 187 ft | 9 kts | 178° |
| 2026-04-21 10:34 | 16.73332 | -22.94594 | 188 ft | 10 kts | 180° |
| 2026-04-21 10:34 | 16.73258 | -22.94595 | 189 ft | 10 kts | 179° |
| 2026-04-21 10:34 | 16.73181 | -22.94593 | 190 ft | 11 kts | 179° |
| 2026-04-21 10:35 | 16.73100 | -22.94598 | 190 ft | 12 kts | 198° |
| 2026-04-21 10:35 | 16.73045 | -22.94666 | 190 ft | 12 kts | 234° |
| 2026-04-21 10:35 | 16.72924 | -22.94691 | 189 ft | 14 kts | 179° |
| 2026-04-21 10:35 | 16.72854 | -22.94690 | 188 ft | 15 kts | 179° |
| 2026-04-21 10:36 | 16.72740 | -22.94689 | 186 ft | 16 kts | 179° |
| 2026-04-21 10:36 | 16.72620 | -22.94688 | 185 ft | 17 kts | 179° |
| 2026-04-21 10:36 | 16.72496 | -22.94687 | 184 ft | 16 kts | 181° |
| 2026-04-21 10:36 | 16.72409 | -22.94723 | 183 ft | 13 kts | 258° |
| 2026-04-21 10:37 | 16.72407 | -22.94777 | 183 ft | 0 kts | 269° |
| 2026-04-21 10:38 | 16.72407 | -22.94779 | 183 ft | 0 kts | 269° |
| 2026-04-21 10:38 | 16.72407 | -22.94792 | 183 ft | 3 kts | 270° |
| 2026-04-21 10:38 | 16.72407 | -22.94835 | 183 ft | 8 kts | 271° |
| 2026-04-21 10:39 | 16.72449 | -22.94886 | 183 ft | 13 kts | 351° |
| 2026-04-21 10:39 | 16.72680 | -22.94888 | 183 ft | 65 kts | 360° |
| 2026-04-21 10:39 | 16.73356 | -22.94892 | 192 ft | 125 kts | 360° |
| 2026-04-21 10:39 | 16.74393 | -22.94896 | 263 ft | 166 kts | 2° |
| 2026-04-21 10:40 | 16.75557 | -22.94879 | 811 ft | 169 kts | 1° |
| 2026-04-21 10:40 | 16.76725 | -22.94892 | 1537 ft | 168 kts | 0° |
| 2026-04-21 10:40 | 16.77878 | -22.94913 | 2127 ft | 170 kts | 0° |
| 2026-04-21 10:40 | 16.79117 | -22.94932 | 2479 ft | 186 kts | 1° |
| 2026-04-21 10:41 | 16.80464 | -22.94947 | 2842 ft | 202 kts | 0° |
| 2026-04-21 10:41 | 16.81937 | -22.94962 | 3142 ft | 223 kts | 0° |
| 2026-04-21 10:41 | 16.83551 | -22.94981 | 3631 ft | 236 kts | 0° |
| 2026-04-21 10:41 | 16.85251 | -22.94999 | 4107 ft | 252 kts | 0° |
| 2026-04-21 10:42 | 16.87022 | -22.95017 | 4811 ft | 257 kts | 360° |
| 2026-04-21 10:42 | 16.88809 | -22.95035 | 5550 ft | 260 kts | 359° |
| 2026-04-21 10:42 | 16.90640 | -22.95043 | 6228 ft | 264 kts | 3° |
| 2026-04-21 10:42 | 16.92425 | -22.94644 | 6796 ft | 270 kts | 21° |
| 2026-04-21 10:43 | 16.94104 | -22.93661 | 7324 ft | 278 kts | 32° |
| 2026-04-21 10:43 | 16.95697 | -22.92509 | 7796 ft | 284 kts | 33° |
| 2026-04-21 10:43 | 16.97327 | -22.91310 | 8225 ft | 291 kts | 33° |
| 2026-04-21 10:43 | 16.99005 | -22.90079 | 8708 ft | 297 kts | 33° |
| 2026-04-21 10:44 | 17.00728 | -22.88822 | 9198 ft | 301 kts | 33° |
| 2026-04-21 10:44 | 17.02455 | -22.87567 | 9668 ft | 306 kts | 33° |
| 2026-04-21 10:44 | 17.04208 | -22.86293 | 10116 ft | 310 kts | 33° |
| 2026-04-21 10:44 | 17.06014 | -22.84985 | 10422 ft | 321 kts | 32° |
| 2026-04-21 10:45 | 17.07881 | -22.83637 | 10662 ft | 333 kts | 32° |
| 2026-04-21 10:45 | 17.09820 | -22.82240 | 10933 ft | 344 kts | 32° |
| 2026-04-21 10:45 | 17.11809 | -22.80804 | 11365 ft | 351 kts | 32° |
| 2026-04-21 10:45 | 17.13822 | -22.79347 | 11899 ft | 354 kts | 32° |
| 2026-04-21 10:46 | 17.15872 | -22.77866 | 12424 ft | 356 kts | 32° |
| 2026-04-21 10:46 | 17.17905 | -22.76395 | 12896 ft | 360 kts | 32° |
| 2026-04-21 10:46 | 17.19973 | -22.74899 | 13385 ft | 363 kts | 32° |
| 2026-04-21 10:46 | 17.22051 | -22.73394 | 13863 ft | 366 kts | 32° |
| 2026-04-21 10:47 | 17.24158 | -22.71871 | 14375 ft | 369 kts | 32° |
| 2026-04-21 10:47 | 17.26284 | -22.70333 | 14897 ft | 372 kts | 32° |
| 2026-04-21 10:47 | 17.28418 | -22.68788 | 15431 ft | 375 kts | 32° |
| 2026-04-21 10:47 | 17.30588 | -22.67217 | 15951 ft | 377 kts | 31° |
| 2026-04-21 10:48 | 17.32744 | -22.65655 | 16453 ft | 380 kts | 31° |
| 2026-04-21 10:48 | 17.34917 | -22.64080 | 16937 ft | 382 kts | 31° |
| 2026-04-21 10:48 | 17.37110 | -22.62489 | 17421 ft | 385 kts | 31° |
| 2026-04-21 10:48 | 17.39312 | -22.60891 | 17910 ft | 387 kts | 31° |
| 2026-04-21 10:49 | 17.41528 | -22.59284 | 18396 ft | 390 kts | 31° |
| 2026-04-21 10:49 | 17.43766 | -22.57660 | 18883 ft | 393 kts | 31° |
| 2026-04-21 10:49 | 17.46016 | -22.56027 | 19355 ft | 395 kts | 31° |
| 2026-04-21 10:49 | 17.48285 | -22.54377 | 19808 ft | 397 kts | 31° |
| 2026-04-21 10:50 | 17.50567 | -22.52716 | 20255 ft | 399 kts | 31° |
| 2026-04-21 10:50 | 17.52839 | -22.51064 | 20682 ft | 401 kts | 30° |
| 2026-04-21 10:50 | 17.55162 | -22.49374 | 21110 ft | 403 kts | 30° |
| 2026-04-21 10:50 | 17.57470 | -22.47694 | 21525 ft | 405 kts | 30° |
| 2026-04-21 10:51 | 17.59764 | -22.46025 | 21920 ft | 406 kts | 29° |
| 2026-04-21 10:51 | 17.62099 | -22.44326 | 22309 ft | 408 kts | 29° |
| 2026-04-21 10:51 | 17.64428 | -22.42631 | 22682 ft | 410 kts | 29° |
| 2026-04-21 10:51 | 17.66784 | -22.40916 | 23046 ft | 411 kts | 28° |
| 2026-04-21 10:52 | 17.69151 | -22.39192 | 23402 ft | 413 kts | 28° |
| 2026-04-21 10:52 | 17.71500 | -22.37481 | 23767 ft | 414 kts | 28° |
| 2026-04-21 10:52 | 17.73896 | -22.35735 | 24139 ft | 416 kts | 28° |
| 2026-04-21 10:52 | 17.76248 | -22.34021 | 24516 ft | 417 kts | 28° |
| 2026-04-21 10:53 | 17.78664 | -22.32260 | 24892 ft | 418 kts | 28° |
| 2026-04-21 10:53 | 17.81035 | -22.30530 | 25241 ft | 420 kts | 27° |
| 2026-04-21 10:53 | 17.83450 | -22.28768 | 25586 ft | 422 kts | 27° |
| 2026-04-21 10:53 | 17.85858 | -22.27011 | 25919 ft | 424 kts | 27° |
| 2026-04-21 10:54 | 17.88312 | -22.25238 | 26250 ft | 424 kts | 26° |
| 2026-04-21 10:54 | 17.90791 | -22.23618 | 26573 ft | 423 kts | 23° |
| 2026-04-21 10:54 | 17.93360 | -22.22030 | 26897 ft | 425 kts | 22° |
| 2026-04-21 10:54 | 17.95897 | -22.20474 | 27203 ft | 426 kts | 22° |
| 2026-04-21 10:55 | 17.98474 | -22.18895 | 27509 ft | 428 kts | 22° |
| 2026-04-21 10:55 | 18.01063 | -22.17306 | 27811 ft | 429 kts | 22° |
| 2026-04-21 10:55 | 18.03624 | -22.15733 | 28093 ft | 432 kts | 21° |
| 2026-04-21 10:55 | 18.06228 | -22.14132 | 28382 ft | 434 kts | 21° |
| 2026-04-21 10:56 | 18.08856 | -22.12514 | 28685 ft | 436 kts | 21° |
| 2026-04-21 10:56 | 18.11482 | -22.10897 | 28994 ft | 437 kts | 21° |
| 2026-04-21 10:56 | 18.14089 | -22.09290 | 29303 ft | 439 kts | 21° |
| 2026-04-21 10:56 | 18.16740 | -22.07656 | 29601 ft | 441 kts | 21° |
| 2026-04-21 10:57 | 18.19404 | -22.06014 | 29881 ft | 443 kts | 21° |
| 2026-04-21 10:57 | 18.22083 | -22.04362 | 30156 ft | 446 kts | 21° |
| 2026-04-21 10:57 | 18.24736 | -22.02725 | 30422 ft | 449 kts | 21° |
| 2026-04-21 10:57 | 18.27464 | -22.01041 | 30689 ft | 451 kts | 21° |
| 2026-04-21 10:58 | 18.30156 | -21.99378 | 30961 ft | 453 kts | 21° |
| 2026-04-21 10:58 | 18.32905 | -21.97679 | 31302 ft | 453 kts | 21° |
| 2026-04-21 10:58 | 18.35622 | -21.95997 | 31657 ft | 453 kts | 21° |
| 2026-04-21 10:58 | 18.38341 | -21.94313 | 31998 ft | 453 kts | 21° |
| 2026-04-21 10:59 | 18.41046 | -21.92638 | 32320 ft | 453 kts | 21° |
| 2026-04-21 10:59 | 18.43773 | -21.90951 | 32635 ft | 454 kts | 21° |
| 2026-04-21 10:59 | 18.46473 | -21.89279 | 32945 ft | 454 kts | 21° |
| 2026-04-21 10:59 | 18.49205 | -21.87587 | 33261 ft | 455 kts | 21° |
| 2026-04-21 11:00 | 18.51943 | -21.85889 | 33569 ft | 455 kts | 21° |
| 2026-04-21 11:00 | 18.54686 | -21.84190 | 33863 ft | 455 kts | 21° |
| 2026-04-21 11:00 | 18.57407 | -21.82502 | 34143 ft | 456 kts | 21° |
| 2026-04-21 11:00 | 18.60135 | -21.80809 | 34415 ft | 456 kts | 21° |
| 2026-04-21 11:01 | 18.62896 | -21.79096 | 34701 ft | 456 kts | 21° |
| 2026-04-21 11:01 | 18.65632 | -21.77396 | 34986 ft | 456 kts | 21° |
| 2026-04-21 11:01 | 18.68329 | -21.75721 | 35257 ft | 455 kts | 21° |
| 2026-04-21 11:02 | 18.73793 | -21.72326 | 35745 ft | 455 kts | 21° |
| 2026-04-21 11:02 | 18.76539 | -21.70619 | 35961 ft | 456 kts | 21° |
| 2026-04-21 11:02 | 18.80191 | -21.68348 | 36237 ft | 456 kts | 21° |
| 2026-04-21 11:02 | 18.82003 | -21.67221 | 36365 ft | 456 kts | 21° |
| 2026-04-21 11:03 | 18.84733 | -21.65522 | 36549 ft | 457 kts | 21° |
| 2026-04-21 11:03 | 18.87467 | -21.63819 | 36739 ft | 457 kts | 21° |
| 2026-04-21 11:03 | 18.90221 | -21.62103 | 36931 ft | 457 kts | 21° |
| 2026-04-21 11:03 | 18.92944 | -21.60407 | 37012 ft | 458 kts | 21° |
| 2026-04-21 11:04 | 18.98443 | -21.56977 | 37055 ft | 457 kts | 21° |
| 2026-04-21 11:04 | 19.03925 | -21.53556 | 37022 ft | 458 kts | 20° |
| 2026-04-21 11:05 | 19.09413 | -21.50128 | 37001 ft | 457 kts | 20° |
| 2026-04-21 11:05 | 19.14871 | -21.46716 | 36988 ft | 457 kts | 20° |
| 2026-04-21 11:06 | 19.20347 | -21.43291 | 36982 ft | 456 kts | 20° |
| 2026-04-21 11:06 | 19.25817 | -21.39867 | 36987 ft | 457 kts | 20° |
| 2026-04-21 11:07 | 19.31297 | -21.36435 | 36989 ft | 457 kts | 20° |
| 2026-04-21 11:07 | 19.36756 | -21.33012 | 36987 ft | 456 kts | 20° |
| 2026-04-21 11:08 | 19.42249 | -21.29566 | 36988 ft | 456 kts | 20° |
| 2026-04-21 11:08 | 19.47715 | -21.26134 | 36988 ft | 457 kts | 20° |
| 2026-04-21 11:09 | 19.53164 | -21.22708 | 36987 ft | 456 kts | 20° |
| 2026-04-21 11:09 | 19.58606 | -21.19284 | 36986 ft | 456 kts | 20° |
| 2026-04-21 11:10 | 19.64074 | -21.15844 | 36986 ft | 456 kts | 20° |
| 2026-04-21 11:10 | 19.69547 | -21.12396 | 36986 ft | 457 kts | 20° |
| 2026-04-21 11:11 | 19.75003 | -21.08955 | 36985 ft | 456 kts | 20° |
| 2026-04-21 11:11 | 19.81357 | -21.04946 | 36985 ft | 455 kts | 20° |
| 2026-04-21 11:12 | 19.85927 | -21.02061 | 36985 ft | 456 kts | 20° |
| 2026-04-21 11:12 | 19.91353 | -20.98631 | 36984 ft | 456 kts | 20° |
| 2026-04-21 11:13 | 19.96819 | -20.95172 | 36983 ft | 455 kts | 20° |
| 2026-04-21 11:13 | 20.02237 | -20.91742 | 36983 ft | 454 kts | 20° |
| 2026-04-21 11:14 | 20.07666 | -20.88303 | 36983 ft | 454 kts | 20° |
| 2026-04-21 11:14 | 20.13103 | -20.84855 | 36990 ft | 454 kts | 20° |
| 2026-04-21 11:15 | 20.18513 | -20.81418 | 36993 ft | 454 kts | 19° |
| 2026-04-21 11:15 | 20.23958 | -20.77960 | 36986 ft | 453 kts | 19° |
| 2026-04-21 11:16 | 20.29382 | -20.74516 | 36982 ft | 453 kts | 19° |
| 2026-04-21 11:16 | 20.34769 | -20.71089 | 36983 ft | 453 kts | 19° |
| 2026-04-21 11:17 | 20.40214 | -20.67620 | 36982 ft | 453 kts | 19° |
| 2026-04-21 11:17 | 20.46492 | -20.63610 | 36983 ft | 452 kts | 19° |
| 2026-04-21 11:18 | 20.50992 | -20.60733 | 36982 ft | 452 kts | 19° |
| 2026-04-21 11:18 | 20.56398 | -20.57274 | 36982 ft | 451 kts | 19° |
| 2026-04-21 11:19 | 20.61772 | -20.53834 | 36982 ft | 451 kts | 19° |
| 2026-04-21 11:19 | 20.67165 | -20.50379 | 36982 ft | 451 kts | 18° |
| 2026-04-21 11:20 | 20.72539 | -20.46932 | 36982 ft | 451 kts | 18° |
| 2026-04-21 11:20 | 20.77912 | -20.43483 | 36982 ft | 451 kts | 18° |
| 2026-04-21 11:21 | 20.83277 | -20.40035 | 36981 ft | 451 kts | 18° |
| 2026-04-21 11:21 | 20.88650 | -20.36579 | 36981 ft | 450 kts | 18° |
| 2026-04-21 11:22 | 20.94024 | -20.33122 | 36979 ft | 450 kts | 18° |
| 2026-04-21 11:22 | 20.99377 | -20.29676 | 36981 ft | 450 kts | 18° |
| 2026-04-21 11:23 | 21.04767 | -20.26202 | 36984 ft | 450 kts | 18° |
| 2026-04-21 11:23 | 21.10126 | -20.22744 | 36987 ft | 450 kts | 18° |
| 2026-04-21 11:24 | 21.15501 | -20.19274 | 36988 ft | 450 kts | 18° |
| 2026-04-21 11:24 | 21.20867 | -20.15807 | 36988 ft | 450 kts | 18° |
| 2026-04-21 11:25 | 21.26213 | -20.12349 | 36987 ft | 450 kts | 18° |
| 2026-04-21 11:25 | 21.31575 | -20.08879 | 36987 ft | 451 kts | 17° |
| 2026-04-21 11:26 | 21.36946 | -20.05400 | 36987 ft | 452 kts | 17° |
| 2026-04-21 11:26 | 21.42355 | -20.01891 | 36986 ft | 451 kts | 17° |
| 2026-04-21 11:27 | 21.47726 | -19.98404 | 36986 ft | 451 kts | 17° |
| 2026-04-21 11:27 | 21.53067 | -19.94935 | 36986 ft | 451 kts | 17° |
| 2026-04-21 11:28 | 21.58453 | -19.91433 | 36987 ft | 450 kts | 17° |
| 2026-04-21 11:28 | 21.63803 | -19.87951 | 36985 ft | 449 kts | 17° |
| 2026-04-21 11:29 | 21.69139 | -19.84477 | 36984 ft | 449 kts | 17° |
| 2026-04-21 11:29 | 21.75357 | -19.80426 | 36983 ft | 450 kts | 16° |
| 2026-04-21 11:30 | 21.79848 | -19.77496 | 36983 ft | 450 kts | 16° |
| 2026-04-21 11:30 | 21.85171 | -19.74019 | 36983 ft | 450 kts | 16° |
| 2026-04-21 11:31 | 21.90514 | -19.70528 | 36983 ft | 450 kts | 16° |
| 2026-04-21 11:31 | 21.96763 | -19.66439 | 36982 ft | 450 kts | 16° |
| 2026-04-21 11:32 | 22.01236 | -19.63509 | 36982 ft | 450 kts | 16° |
| 2026-04-21 11:32 | 22.06587 | -19.60001 | 36983 ft | 450 kts | 16° |
| 2026-04-21 11:33 | 22.11931 | -19.56496 | 36984 ft | 450 kts | 16° |
| 2026-04-21 11:33 | 22.17271 | -19.52991 | 36982 ft | 451 kts | 16° |
| 2026-04-21 11:34 | 22.22625 | -19.49473 | 36981 ft | 451 kts | 16° |
| 2026-04-21 11:34 | 22.27985 | -19.45947 | 36981 ft | 451 kts | 16° |
| 2026-04-21 11:35 | 22.33350 | -19.42415 | 36981 ft | 451 kts | 16° |
| 2026-04-21 11:35 | 22.38706 | -19.38886 | 36981 ft | 451 kts | 16° |
| 2026-04-21 11:36 | 22.44062 | -19.35353 | 36981 ft | 451 kts | 16° |
| 2026-04-21 11:36 | 22.49418 | -19.31818 | 36978 ft | 452 kts | 16° |
| 2026-04-21 11:37 | 22.54796 | -19.28265 | 36980 ft | 453 kts | 16° |
| 2026-04-21 11:37 | 22.60178 | -19.24706 | 36981 ft | 454 kts | 16° |
| 2026-04-21 11:38 | 22.65552 | -19.21148 | 36981 ft | 454 kts | 17° |
| 2026-04-21 11:38 | 22.70928 | -19.17583 | 36981 ft | 454 kts | 16° |
| 2026-04-21 11:39 | 22.76307 | -19.14014 | 36981 ft | 454 kts | 16° |
| 2026-04-21 11:39 | 22.82621 | -19.09822 | 36981 ft | 454 kts | 16° |
| 2026-04-21 11:40 | 22.87079 | -19.06858 | 36981 ft | 453 kts | 16° |
| 2026-04-21 11:40 | 22.92471 | -19.03271 | 36981 ft | 452 kts | 16° |
| 2026-04-21 11:41 | 22.97831 | -18.99704 | 36982 ft | 452 kts | 16° |
| 2026-04-21 11:41 | 23.04086 | -18.95536 | 36982 ft | 453 kts | 16° |
| 2026-04-21 11:42 | 23.09438 | -18.91966 | 36982 ft | 453 kts | 16° |
| 2026-04-21 11:42 | 23.13928 | -18.88969 | 36982 ft | 453 kts | 16° |
| 2026-04-21 11:43 | 23.19296 | -18.85382 | 36982 ft | 454 kts | 16° |
| 2026-04-21 11:43 | 23.25561 | -18.81191 | 36982 ft | 455 kts | 16° |
| 2026-04-21 11:44 | 23.30061 | -18.78178 | 36982 ft | 455 kts | 17° |
| 2026-04-21 11:44 | 23.35433 | -18.74577 | 36983 ft | 455 kts | 17° |
| 2026-04-21 11:45 | 23.40806 | -18.70971 | 36983 ft | 455 kts | 16° |
| 2026-04-21 11:45 | 23.47105 | -18.66740 | 36983 ft | 455 kts | 16° |
| 2026-04-21 11:46 | 23.52478 | -18.63129 | 36983 ft | 455 kts | 17° |
| 2026-04-21 11:46 | 23.56989 | -18.60094 | 36983 ft | 455 kts | 17° |
| 2026-04-21 11:47 | 23.62353 | -18.56483 | 36983 ft | 455 kts | 17° |
| 2026-04-21 11:47 | 23.68656 | -18.52234 | 36983 ft | 455 kts | 17° |
| 2026-04-21 11:48 | 23.73138 | -18.49210 | 36982 ft | 456 kts | 17° |
| 2026-04-21 11:48 | 23.78553 | -18.45553 | 36982 ft | 457 kts | 17° |
| 2026-04-21 11:49 | 23.83937 | -18.41912 | 36982 ft | 457 kts | 17° |
| 2026-04-21 11:49 | 23.90219 | -18.37660 | 36981 ft | 456 kts | 17° |
| 2026-04-21 11:50 | 23.94745 | -18.34595 | 36980 ft | 456 kts | 18° |
| 2026-04-21 11:50 | 24.01024 | -18.30340 | 36979 ft | 457 kts | 17° |
| 2026-04-21 11:51 | 24.05542 | -18.27276 | 36979 ft | 457 kts | 18° |
| 2026-04-21 11:51 | 24.11825 | -18.22999 | 36983 ft | 457 kts | 18° |
| 2026-04-21 11:52 | 24.16331 | -18.19932 | 36983 ft | 457 kts | 18° |
| 2026-04-21 11:52 | 24.21731 | -18.16262 | 36980 ft | 457 kts | 18° |
| 2026-04-21 11:53 | 24.27124 | -18.12585 | 36979 ft | 457 kts | 18° |
| 2026-04-21 11:53 | 24.32542 | -18.08887 | 36980 ft | 457 kts | 18° |
| 2026-04-21 11:54 | 24.37918 | -18.05213 | 36981 ft | 457 kts | 18° |
| 2026-04-21 11:54 | 24.43302 | -18.01536 | 36979 ft | 457 kts | 18° |
| 2026-04-21 11:55 | 24.49608 | -17.97219 | 36981 ft | 457 kts | 18° |
| 2026-04-21 11:55 | 24.55006 | -17.93521 | 36987 ft | 457 kts | 18° |
| 2026-04-21 11:56 | 24.60376 | -17.89840 | 36988 ft | 457 kts | 19° |
| 2026-04-21 11:56 | 24.65801 | -17.86114 | 36987 ft | 458 kts | 19° |
| 2026-04-21 11:57 | 24.70300 | -17.83022 | 37001 ft | 459 kts | 19° |
| 2026-04-21 11:57 | 24.72977 | -17.81182 | 37127 ft | 459 kts | 19° |
| 2026-04-21 11:57 | 24.76609 | -17.78680 | 37359 ft | 458 kts | 19° |
| 2026-04-21 11:58 | 24.79289 | -17.76834 | 37508 ft | 457 kts | 19° |
| 2026-04-21 11:58 | 24.81986 | -17.74976 | 37639 ft | 457 kts | 19° |
| 2026-04-21 11:58 | 24.86473 | -17.71881 | 37887 ft | 457 kts | 20° |
| 2026-04-21 11:59 | 24.91840 | -17.68176 | 38012 ft | 456 kts | 20° |
| 2026-04-21 11:59 | 24.98128 | -17.63830 | 38009 ft | 455 kts | 20° |
| 2026-04-21 12:00 | 25.03488 | -17.60125 | 38005 ft | 455 kts | 20° |
| 2026-04-21 12:00 | 25.08837 | -17.56420 | 37984 ft | 455 kts | 20° |
| 2026-04-21 12:01 | 25.14205 | -17.52696 | 37978 ft | 455 kts | 21° |
| 2026-04-21 12:01 | 25.19546 | -17.48986 | 37979 ft | 455 kts | 21° |
| 2026-04-21 12:02 | 25.26696 | -17.44012 | 37975 ft | 455 kts | 21° |
| 2026-04-21 12:03 | 25.32019 | -17.40299 | 37965 ft | 450 kts | 21° |
| 2026-04-21 12:03 | 25.38144 | -17.36021 | 37969 ft | 442 kts | 21° |
| 2026-04-21 12:04 | 25.42476 | -17.33001 | 37975 ft | 441 kts | 21° |
| 2026-04-21 12:04 | 25.47660 | -17.29387 | 37978 ft | 441 kts | 21° |
| 2026-04-21 12:05 | 25.52865 | -17.25750 | 37977 ft | 441 kts | 21° |
| 2026-04-21 12:05 | 25.58055 | -17.22118 | 37977 ft | 441 kts | 22° |
| 2026-04-21 12:06 | 25.64105 | -17.17879 | 37976 ft | 441 kts | 22° |
| 2026-04-21 12:06 | 25.68404 | -17.14863 | 37976 ft | 441 kts | 22° |
| 2026-04-21 12:07 | 25.74445 | -17.10620 | 37975 ft | 441 kts | 22° |
| 2026-04-21 12:07 | 25.78786 | -17.07566 | 37975 ft | 442 kts | 22° |
| 2026-04-21 12:08 | 25.84833 | -17.03308 | 37975 ft | 442 kts | 22° |
| 2026-04-21 12:08 | 25.89177 | -17.00248 | 37975 ft | 442 kts | 22° |
| 2026-04-21 12:09 | 25.95215 | -16.95989 | 37975 ft | 442 kts | 22° |
| 2026-04-21 12:09 | 26.00408 | -16.92322 | 37975 ft | 443 kts | 22° |
| 2026-04-21 12:10 | 26.05633 | -16.88631 | 37975 ft | 443 kts | 23° |
| 2026-04-21 12:10 | 26.09931 | -16.85590 | 37984 ft | 443 kts | 23° |
| 2026-04-21 12:11 | 26.15166 | -16.81885 | 38005 ft | 441 kts | 24° |
| 2026-04-21 12:11 | 26.21194 | -16.77612 | 37983 ft | 439 kts | 24° |
| 2026-04-21 12:12 | 26.25489 | -16.74572 | 37958 ft | 439 kts | 24° |
| 2026-04-21 12:12 | 26.31476 | -16.70332 | 37953 ft | 440 kts | 24° |
| 2026-04-21 12:13 | 26.36661 | -16.66656 | 37954 ft | 440 kts | 24° |
| 2026-04-21 12:13 | 26.40966 | -16.63600 | 37955 ft | 441 kts | 25° |
| 2026-04-21 12:14 | 26.46132 | -16.59928 | 37959 ft | 441 kts | 25° |
| 2026-04-21 12:14 | 26.51306 | -16.56247 | 37959 ft | 441 kts | 25° |
| 2026-04-21 12:15 | 26.57347 | -16.51945 | 37958 ft | 441 kts | 25° |
| 2026-04-21 12:15 | 26.62507 | -16.48266 | 37958 ft | 441 kts | 25° |
| 2026-04-21 12:16 | 26.66824 | -16.45185 | 37955 ft | 441 kts | 25° |
| 2026-04-21 12:16 | 26.72853 | -16.40877 | 37950 ft | 441 kts | 25° |
| 2026-04-21 12:17 | 26.77169 | -16.37789 | 37948 ft | 441 kts | 25° |
| 2026-04-21 12:17 | 26.82329 | -16.34097 | 37946 ft | 441 kts | 25° |
| 2026-04-21 12:18 | 26.88344 | -16.29784 | 37948 ft | 441 kts | 25° |
| 2026-04-21 12:18 | 26.93511 | -16.26072 | 37948 ft | 440 kts | 25° |
| 2026-04-21 12:19 | 26.98642 | -16.22380 | 37948 ft | 440 kts | 26° |
| 2026-04-21 12:19 | 27.03783 | -16.18675 | 37949 ft | 440 kts | 26° |
| 2026-04-21 12:20 | 27.08935 | -16.14958 | 37949 ft | 439 kts | 26° |
| 2026-04-21 12:20 | 27.14072 | -16.11247 | 37949 ft | 438 kts | 26° |
| 2026-04-21 12:21 | 27.19185 | -16.07549 | 37948 ft | 437 kts | 26° |
| 2026-04-21 12:21 | 27.23423 | -16.04478 | 37947 ft | 437 kts | 26° |
| 2026-04-21 12:22 | 27.28525 | -16.00778 | 37946 ft | 436 kts | 26° |
| 2026-04-21 12:22 | 27.34482 | -15.96454 | 37946 ft | 436 kts | 26° |
| 2026-04-21 12:23 | 27.39567 | -15.92763 | 37948 ft | 438 kts | 27° |
| 2026-04-21 12:23 | 27.43846 | -15.89652 | 37946 ft | 439 kts | 27° |
| 2026-04-21 12:24 | 27.49805 | -15.85311 | 37940 ft | 439 kts | 27° |
| 2026-04-21 12:24 | 27.54914 | -15.81585 | 37938 ft | 438 kts | 27° |
| 2026-04-21 12:25 | 27.60034 | -15.77848 | 37937 ft | 438 kts | 27° |
| 2026-04-21 12:25 | 27.64301 | -15.74734 | 37935 ft | 437 kts | 27° |
| 2026-04-21 12:26 | 27.70231 | -15.70403 | 37934 ft | 436 kts | 27° |
| 2026-04-21 12:26 | 27.75326 | -15.66675 | 37931 ft | 436 kts | 27° |
| 2026-04-21 12:27 | 27.79554 | -15.63577 | 37932 ft | 436 kts | 27° |
| 2026-04-21 12:27 | 27.85513 | -15.59206 | 37936 ft | 436 kts | 27° |
| 2026-04-21 12:28 | 27.90585 | -15.55480 | 37943 ft | 436 kts | 27° |
| 2026-04-21 12:28 | 27.95641 | -15.51762 | 37951 ft | 436 kts | 27° |
| 2026-04-21 12:29 | 27.99890 | -15.48634 | 37924 ft | 436 kts | 27° |
| 2026-04-21 12:29 | 28.04964 | -15.44894 | 37926 ft | 436 kts | 27° |
| 2026-04-21 12:30 | 28.10897 | -15.40509 | 37943 ft | 436 kts | 28° |
| 2026-04-21 12:30 | 28.15088 | -15.37398 | 37943 ft | 435 kts | 28° |
| 2026-04-21 12:31 | 28.21025 | -15.32985 | 37935 ft | 436 kts | 28° |
| 2026-04-21 12:31 | 28.25252 | -15.29839 | 37934 ft | 437 kts | 28° |
| 2026-04-21 12:32 | 28.31172 | -15.25428 | 37934 ft | 437 kts | 28° |
| 2026-04-21 12:32 | 28.35378 | -15.22291 | 37935 ft | 437 kts | 28° |
| 2026-04-21 12:33 | 28.40466 | -15.18491 | 37936 ft | 438 kts | 28° |
| 2026-04-21 12:33 | 28.45550 | -15.14691 | 37938 ft | 438 kts | 28° |
| 2026-04-21 12:34 | 28.51505 | -15.10234 | 37938 ft | 439 kts | 28° |
| 2026-04-21 12:34 | 28.56596 | -15.06419 | 37938 ft | 440 kts | 28° |
| 2026-04-21 12:35 | 28.61692 | -15.02595 | 37936 ft | 440 kts | 28° |
| 2026-04-21 12:35 | 28.65959 | -14.99389 | 37933 ft | 440 kts | 28° |
| 2026-04-21 12:36 | 28.71931 | -14.94898 | 37929 ft | 441 kts | 28° |
| 2026-04-21 12:36 | 28.77026 | -14.91061 | 37928 ft | 441 kts | 28° |
| 2026-04-21 12:37 | 28.81302 | -14.87838 | 37927 ft | 442 kts | 28° |
| 2026-04-21 12:37 | 28.86426 | -14.83971 | 37927 ft | 442 kts | 28° |
| 2026-04-21 12:38 | 28.92404 | -14.79453 | 37927 ft | 442 kts | 28° |
| 2026-04-21 12:38 | 28.97536 | -14.75570 | 37926 ft | 442 kts | 28° |
| 2026-04-21 12:39 | 29.02640 | -14.71705 | 37926 ft | 442 kts | 28° |
| 2026-04-21 12:39 | 29.06922 | -14.68461 | 37925 ft | 442 kts | 28° |
| 2026-04-21 12:40 | 29.12891 | -14.63931 | 37924 ft | 442 kts | 29° |
| 2026-04-21 12:40 | 29.17986 | -14.60058 | 37923 ft | 442 kts | 29° |
| 2026-04-21 12:41 | 29.23130 | -14.56142 | 37922 ft | 443 kts | 29° |
| 2026-04-21 12:41 | 29.28262 | -14.52231 | 37922 ft | 443 kts | 29° |
| 2026-04-21 12:42 | 29.33380 | -14.48326 | 37921 ft | 443 kts | 29° |
| 2026-04-21 12:42 | 29.38485 | -14.44425 | 37920 ft | 443 kts | 29° |
| 2026-04-21 12:43 | 29.43624 | -14.40495 | 37920 ft | 444 kts | 29° |
| 2026-04-21 12:43 | 29.48770 | -14.36554 | 37920 ft | 444 kts | 29° |
| 2026-04-21 12:44 | 29.53900 | -14.32620 | 37918 ft | 445 kts | 29° |
| 2026-04-21 12:44 | 29.59024 | -14.28685 | 37919 ft | 445 kts | 29° |
| 2026-04-21 12:45 | 29.64174 | -14.24725 | 37919 ft | 446 kts | 29° |
| 2026-04-21 12:45 | 29.69338 | -14.20753 | 37920 ft | 446 kts | 29° |
| 2026-04-21 12:46 | 29.74518 | -14.16762 | 37920 ft | 447 kts | 29° |
| 2026-04-21 12:46 | 29.79676 | -14.12782 | 37920 ft | 448 kts | 29° |
| 2026-04-21 12:47 | 29.84845 | -14.08789 | 37921 ft | 448 kts | 29° |
| 2026-04-21 12:47 | 29.90002 | -14.04799 | 37921 ft | 448 kts | 29° |
| 2026-04-21 12:48 | 29.95186 | -14.00783 | 37921 ft | 448 kts | 29° |
| 2026-04-21 12:48 | 30.00358 | -13.96770 | 37921 ft | 448 kts | 29° |
| 2026-04-21 12:49 | 30.05518 | -13.92763 | 37922 ft | 448 kts | 29° |
| 2026-04-21 12:49 | 30.10676 | -13.88751 | 37922 ft | 448 kts | 29° |
| 2026-04-21 12:50 | 30.15839 | -13.84732 | 37923 ft | 448 kts | 29° |
| 2026-04-21 12:50 | 30.21020 | -13.80692 | 37925 ft | 448 kts | 29° |
| 2026-04-21 12:51 | 30.25315 | -13.77340 | 37927 ft | 448 kts | 29° |
| 2026-04-21 12:51 | 30.31319 | -13.72648 | 37931 ft | 448 kts | 29° |
| 2026-04-21 12:52 | 30.35649 | -13.69258 | 37932 ft | 448 kts | 29° |
| 2026-04-21 12:52 | 30.41657 | -13.64549 | 37934 ft | 448 kts | 29° |
| 2026-04-21 12:53 | 30.46801 | -13.60512 | 37935 ft | 448 kts | 30° |
| 2026-04-21 12:53 | 30.52066 | -13.56605 | 37936 ft | 446 kts | 24° |
| 2026-04-21 12:54 | 30.57531 | -13.53230 | 37938 ft | 445 kts | 22° |
| 2026-04-21 12:54 | 30.63003 | -13.49922 | 37938 ft | 445 kts | 22° |
| 2026-04-21 12:55 | 30.67566 | -13.47155 | 37936 ft | 445 kts | 23° |
| 2026-04-21 12:55 | 30.73975 | -13.43254 | 37931 ft | 445 kts | 23° |
| 2026-04-21 12:56 | 30.79454 | -13.39912 | 37929 ft | 445 kts | 23° |
| 2026-04-21 12:56 | 30.84912 | -13.36577 | 37928 ft | 444 kts | 23° |
| 2026-04-21 12:57 | 30.90389 | -13.33227 | 37927 ft | 445 kts | 24° |
| 2026-04-21 12:57 | 30.95868 | -13.29870 | 37927 ft | 445 kts | 24° |
| 2026-04-21 12:58 | 31.01334 | -13.26516 | 37927 ft | 445 kts | 24° |
| 2026-04-21 12:58 | 31.06804 | -13.23156 | 37926 ft | 444 kts | 24° |
| 2026-04-21 12:59 | 31.12250 | -13.19809 | 37926 ft | 444 kts | 24° |
| 2026-04-21 12:59 | 31.17741 | -13.16429 | 37925 ft | 444 kts | 24° |
| 2026-04-21 13:00 | 31.23209 | -13.13059 | 37924 ft | 444 kts | 24° |
| 2026-04-21 13:00 | 31.28669 | -13.09686 | 37924 ft | 444 kts | 24° |
| 2026-04-21 13:01 | 31.34117 | -13.06317 | 37924 ft | 444 kts | 24° |
| 2026-04-21 13:01 | 31.38676 | -13.03495 | 37923 ft | 444 kts | 24° |
| 2026-04-21 13:02 | 31.45023 | -12.99559 | 37923 ft | 444 kts | 24° |
| 2026-04-21 13:02 | 31.53223 | -12.94466 | 37923 ft | 445 kts | 24° |
| 2026-04-21 13:03 | 31.58698 | -12.91061 | 37922 ft | 445 kts | 24° |
| 2026-04-21 13:03 | 31.64148 | -12.87667 | 37923 ft | 446 kts | 24° |
| 2026-04-21 13:04 | 31.69643 | -12.84239 | 37924 ft | 446 kts | 24° |
| 2026-04-21 13:04 | 31.75117 | -12.80822 | 37924 ft | 446 kts | 24° |
| 2026-04-21 13:05 | 31.80575 | -12.77409 | 37925 ft | 446 kts | 24° |
| 2026-04-21 13:05 | 31.86035 | -12.73989 | 37925 ft | 445 kts | 24° |
| 2026-04-21 13:06 | 31.91501 | -12.70562 | 37925 ft | 446 kts | 24° |
| 2026-04-21 13:06 | 31.96981 | -12.67122 | 37925 ft | 447 kts | 24° |
| 2026-04-21 13:07 | 32.01571 | -12.64237 | 37926 ft | 447 kts | 24° |
| 2026-04-21 13:07 | 32.07982 | -12.60201 | 37937 ft | 449 kts | 24° |
| 2026-04-21 13:08 | 32.13461 | -12.56747 | 37941 ft | 448 kts | 24° |
| 2026-04-21 13:08 | 32.18977 | -12.53264 | 37927 ft | 449 kts | 24° |
| 2026-04-21 13:09 | 32.24447 | -12.49807 | 37923 ft | 449 kts | 25° |
| 2026-04-21 13:09 | 32.29949 | -12.46324 | 37923 ft | 449 kts | 25° |
| 2026-04-21 13:10 | 32.35452 | -12.42835 | 37923 ft | 450 kts | 25° |
| 2026-04-21 13:10 | 32.40984 | -12.39321 | 37924 ft | 450 kts | 25° |
| 2026-04-21 13:11 | 32.46476 | -12.35829 | 37925 ft | 450 kts | 25° |
| 2026-04-21 13:11 | 32.52016 | -12.32303 | 37925 ft | 451 kts | 25° |
| 2026-04-21 13:12 | 32.57535 | -12.28784 | 37925 ft | 451 kts | 25° |
| 2026-04-21 13:12 | 32.63026 | -12.25278 | 37926 ft | 451 kts | 25° |
| 2026-04-21 13:13 | 32.68551 | -12.21746 | 37926 ft | 451 kts | 25° |
| 2026-04-21 13:13 | 32.74069 | -12.18214 | 37926 ft | 451 kts | 25° |
| 2026-04-21 13:14 | 32.79607 | -12.14666 | 37927 ft | 451 kts | 25° |
| 2026-04-21 13:14 | 32.85134 | -12.11119 | 37927 ft | 451 kts | 25° |
| 2026-04-21 13:15 | 32.90634 | -12.07582 | 37927 ft | 450 kts | 25° |
| 2026-04-21 13:15 | 32.95203 | -12.04641 | 37927 ft | 450 kts | 25° |
| 2026-04-21 13:16 | 33.01649 | -12.00486 | 37927 ft | 450 kts | 25° |
| 2026-04-21 13:16 | 33.07154 | -11.96932 | 37924 ft | 450 kts | 25° |
| 2026-04-21 13:17 | 33.12637 | -11.93385 | 37917 ft | 450 kts | 25° |
| 2026-04-21 13:17 | 33.18144 | -11.89820 | 37919 ft | 452 kts | 25° |
| 2026-04-21 13:18 | 33.23707 | -11.86216 | 37919 ft | 457 kts | 25° |
| 2026-04-21 13:18 | 33.29274 | -11.82600 | 37910 ft | 459 kts | 26° |
| 2026-04-21 13:19 | 33.34884 | -11.78948 | 37907 ft | 459 kts | 26° |
| 2026-04-21 13:19 | 33.40501 | -11.75288 | 37906 ft | 460 kts | 26° |
| 2026-04-21 13:20 | 33.46117 | -11.71625 | 37906 ft | 460 kts | 26° |
| 2026-04-21 13:20 | 33.51730 | -11.67957 | 37905 ft | 460 kts | 25° |
| 2026-04-21 13:21 | 33.57341 | -11.64286 | 37904 ft | 460 kts | 25° |
| 2026-04-21 13:21 | 33.62932 | -11.60622 | 37903 ft | 460 kts | 25° |
| 2026-04-21 13:22 | 33.68567 | -11.56925 | 37902 ft | 460 kts | 25° |
| 2026-04-21 13:22 | 33.74165 | -11.53246 | 37902 ft | 460 kts | 25° |
| 2026-04-21 13:23 | 33.79749 | -11.49571 | 37906 ft | 460 kts | 25° |
| 2026-04-21 13:23 | 33.85353 | -11.45877 | 37908 ft | 460 kts | 25° |
| 2026-04-21 13:24 | 33.90966 | -11.42172 | 37907 ft | 460 kts | 26° |
| 2026-04-21 13:24 | 33.96578 | -11.38461 | 37903 ft | 461 kts | 26° |
| 2026-04-21 13:25 | 34.02185 | -11.34748 | 37898 ft | 462 kts | 26° |
| 2026-04-21 13:25 | 34.07810 | -11.31018 | 37896 ft | 462 kts | 26° |
| 2026-04-21 13:26 | 34.13456 | -11.27268 | 37895 ft | 463 kts | 26° |
| 2026-04-21 13:26 | 34.19102 | -11.23513 | 37892 ft | 464 kts | 26° |
| 2026-04-21 13:27 | 34.24731 | -11.19763 | 37890 ft | 464 kts | 26° |
| 2026-04-21 13:27 | 34.30405 | -11.15976 | 37889 ft | 465 kts | 26° |
| 2026-04-21 13:28 | 34.36041 | -11.12209 | 37887 ft | 465 kts | 26° |
| 2026-04-21 13:28 | 34.41693 | -11.08426 | 37886 ft | 466 kts | 26° |
| 2026-04-21 13:29 | 34.47378 | -11.04615 | 37885 ft | 466 kts | 27° |
| 2026-04-21 13:29 | 34.53024 | -11.00824 | 37883 ft | 466 kts | 27° |
| 2026-04-21 13:30 | 34.58695 | -10.97010 | 37881 ft | 467 kts | 27° |
| 2026-04-21 13:30 | 34.64378 | -10.93181 | 37879 ft | 467 kts | 27° |
| 2026-04-21 13:31 | 34.70068 | -10.89343 | 37877 ft | 468 kts | 27° |
| 2026-04-21 13:31 | 34.75743 | -10.85508 | 37876 ft | 469 kts | 27° |
| 2026-04-21 13:32 | 34.81448 | -10.81647 | 37874 ft | 469 kts | 27° |
| 2026-04-21 13:32 | 34.87153 | -10.77780 | 37867 ft | 470 kts | 27° |
| 2026-04-21 13:33 | 34.92821 | -10.73931 | 37853 ft | 470 kts | 27° |
| 2026-04-21 13:33 | 34.98533 | -10.70047 | 37842 ft | 471 kts | 27° |
| 2026-04-21 13:34 | 35.04258 | -10.66148 | 37838 ft | 471 kts | 27° |
| 2026-04-21 13:34 | 35.09960 | -10.62257 | 37838 ft | 471 kts | 27° |
| 2026-04-21 13:35 | 35.15677 | -10.58351 | 37837 ft | 472 kts | 27° |
| 2026-04-21 13:35 | 35.21405 | -10.54429 | 37838 ft | 472 kts | 27° |
| 2026-04-21 13:36 | 35.27158 | -10.50485 | 37838 ft | 473 kts | 27° |
| 2026-04-21 13:36 | 35.32893 | -10.46547 | 37838 ft | 473 kts | 27° |
| 2026-04-21 13:37 | 35.38623 | -10.42606 | 37838 ft | 473 kts | 27° |
| 2026-04-21 13:37 | 35.44328 | -10.38675 | 37838 ft | 473 kts | 27° |
| 2026-04-21 13:38 | 35.50065 | -10.34716 | 37836 ft | 474 kts | 28° |
| 2026-04-21 13:38 | 35.55813 | -10.30743 | 37836 ft | 475 kts | 28° |
| 2026-04-21 13:39 | 35.61579 | -10.26751 | 37835 ft | 475 kts | 28° |
| 2026-04-21 13:39 | 35.67316 | -10.22771 | 37833 ft | 476 kts | 28° |
| 2026-04-21 13:40 | 35.73064 | -10.18777 | 37832 ft | 476 kts | 28° |
| 2026-04-21 13:40 | 35.78853 | -10.14749 | 37830 ft | 476 kts | 28° |
| 2026-04-21 13:41 | 35.84590 | -10.10752 | 37828 ft | 477 kts | 28° |
| 2026-04-21 13:41 | 35.90384 | -10.06705 | 37825 ft | 477 kts | 28° |
| 2026-04-21 13:42 | 35.96119 | -10.02693 | 37823 ft | 478 kts | 28° |
| 2026-04-21 13:42 | 35.98931 | -10.00464 | 37798 ft | 473 kts | 41° |
| 2026-04-21 13:42 | 36.00995 | -9.97432 | 37803 ft | 465 kts | 64° |
| 2026-04-21 13:43 | 36.02084 | -9.93736 | 37808 ft | 454 kts | 87° |
| 2026-04-21 13:43 | 36.02050 | -9.89922 | 37810 ft | 438 kts | 109° |
| 2026-04-21 13:43 | 36.00950 | -9.86549 | 37810 ft | 418 kts | 132° |
| 2026-04-21 13:43 | 35.99029 | -9.83985 | 37816 ft | 401 kts | 150° |
| 2026-04-21 13:44 | 35.96692 | -9.82274 | 37813 ft | 388 kts | 165° |
| 2026-04-21 13:44 | 35.94154 | -9.81415 | 37811 ft | 376 kts | 179° |
| 2026-04-21 13:44 | 35.91552 | -9.81422 | 37810 ft | 368 kts | 193° |
| 2026-04-21 13:44 | 35.89127 | -9.82265 | 37810 ft | 362 kts | 207° |
| 2026-04-21 13:45 | 35.84673 | -9.85133 | 37812 ft | 361 kts | 209° |
| 2026-04-21 13:45 | 35.80236 | -9.88002 | 37810 ft | 361 kts | 209° |
| 2026-04-21 13:46 | 35.76007 | -9.91269 | 37801 ft | 360 kts | 226° |
| 2026-04-21 13:46 | 35.74535 | -9.93712 | 37806 ft | 363 kts | 240° |
| 2026-04-21 13:46 | 35.73642 | -9.96626 | 37808 ft | 369 kts | 254° |
| 2026-04-21 13:47 | 35.73439 | -9.99779 | 37808 ft | 378 kts | 269° |
| 2026-04-21 13:47 | 35.73994 | -10.02980 | 37808 ft | 391 kts | 285° |
| 2026-04-21 13:47 | 35.75338 | -10.05939 | 37808 ft | 407 kts | 302° |
| 2026-04-21 13:47 | 35.77458 | -10.08363 | 37807 ft | 424 kts | 320° |
| 2026-04-21 13:48 | 35.80203 | -10.09880 | 37807 ft | 441 kts | 341° |
| 2026-04-21 13:48 | 35.83280 | -10.10198 | 37807 ft | 456 kts | 2° |
| 2026-04-21 13:48 | 35.86381 | -10.09163 | 37815 ft | 465 kts | 23° |
| 2026-04-21 13:48 | 35.89218 | -10.07341 | 37825 ft | 466 kts | 27° |
| 2026-04-21 13:49 | 35.94900 | -10.03438 | 37821 ft | 466 kts | 26° |
| 2026-04-21 13:49 | 36.00227 | -9.98962 | 37800 ft | 466 kts | 53° |
| 2026-04-21 13:50 | 36.01830 | -9.95546 | 37808 ft | 460 kts | 75° |
| 2026-04-21 13:50 | 36.02362 | -9.91790 | 37811 ft | 447 kts | 98° |
| 2026-04-21 13:50 | 36.01782 | -9.88089 | 37810 ft | 428 kts | 121° |
| 2026-04-21 13:50 | 36.00227 | -9.85104 | 37812 ft | 408 kts | 142° |
| 2026-04-21 13:51 | 35.98074 | -9.83013 | 37815 ft | 394 kts | 158° |
| 2026-04-21 13:51 | 35.95599 | -9.81717 | 37812 ft | 382 kts | 172° |
| 2026-04-21 13:51 | 35.93010 | -9.81265 | 37810 ft | 372 kts | 185° |
| 2026-04-21 13:51 | 35.90485 | -9.81669 | 37810 ft | 365 kts | 199° |
| 2026-04-21 13:52 | 35.88157 | -9.82847 | 37813 ft | 361 kts | 210° |
| 2026-04-21 13:52 | 35.85927 | -9.84313 | 37812 ft | 361 kts | 210° |
| 2026-04-21 13:52 | 35.81468 | -9.87207 | 37810 ft | 361 kts | 209° |
| 2026-04-21 13:53 | 35.77077 | -9.90148 | 37800 ft | 360 kts | 217° |
| 2026-04-21 13:53 | 35.75301 | -9.92268 | 37804 ft | 361 kts | 232° |
| 2026-04-21 13:53 | 35.74059 | -9.94966 | 37806 ft | 365 kts | 246° |
| 2026-04-21 13:54 | 35.73463 | -9.98021 | 37808 ft | 373 kts | 261° |
| 2026-04-21 13:54 | 35.73595 | -10.01240 | 37808 ft | 384 kts | 276° |
| 2026-04-21 13:54 | 35.74496 | -10.04344 | 37807 ft | 398 kts | 292° |
| 2026-04-21 13:54 | 35.76201 | -10.07117 | 37807 ft | 415 kts | 310° |
| 2026-04-21 13:55 | 35.78607 | -10.09163 | 37807 ft | 432 kts | 329° |
| 2026-04-21 13:55 | 35.81522 | -10.10175 | 37807 ft | 448 kts | 350° |
| 2026-04-21 13:55 | 35.84669 | -10.09909 | 37810 ft | 461 kts | 12° |
| 2026-04-21 13:55 | 35.87648 | -10.08388 | 37828 ft | 466 kts | 26° |
| 2026-04-21 13:56 | 35.93289 | -10.04526 | 37822 ft | 466 kts | 27° |
| 2026-04-21 13:56 | 35.98915 | -10.00536 | 37801 ft | 467 kts | 40° |
| 2026-04-21 13:57 | 36.01052 | -9.97543 | 37805 ft | 464 kts | 63° |
| 2026-04-21 13:57 | 36.02196 | -9.93918 | 37810 ft | 455 kts | 85° |
| 2026-04-21 13:57 | 36.02240 | -9.90109 | 37809 ft | 439 kts | 108° |
| 2026-04-21 13:57 | 36.01197 | -9.86664 | 37809 ft | 419 kts | 130° |
| 2026-04-21 13:58 | 35.99310 | -9.84070 | 37816 ft | 401 kts | 149° |
| 2026-04-21 13:58 | 35.96976 | -9.82327 | 37813 ft | 388 kts | 164° |
| 2026-04-21 13:58 | 35.94449 | -9.81415 | 37811 ft | 377 kts | 178° |
| 2026-04-21 13:58 | 35.91849 | -9.81348 | 37809 ft | 368 kts | 192° |
| 2026-04-21 13:59 | 35.89387 | -9.82126 | 37809 ft | 363 kts | 205° |
| 2026-04-21 13:59 | 35.87160 | -9.83509 | 37815 ft | 361 kts | 210° |
| 2026-04-21 13:59 | 35.82719 | -9.86401 | 37810 ft | 361 kts | 209° |
| 2026-04-21 14:00 | 35.78268 | -9.89275 | 37810 ft | 361 kts | 210° |
| 2026-04-21 14:00 | 35.76235 | -9.91000 | 37799 ft | 360 kts | 224° |
| 2026-04-21 14:00 | 35.74676 | -9.93416 | 37806 ft | 362 kts | 238° |
| 2026-04-21 14:01 | 35.73714 | -9.96289 | 37808 ft | 368 kts | 252° |
| 2026-04-21 14:01 | 35.73432 | -9.99459 | 37808 ft | 377 kts | 267° |
| 2026-04-21 14:01 | 35.73898 | -10.02625 | 37809 ft | 390 kts | 283° |
| 2026-04-21 14:01 | 35.75161 | -10.05637 | 37809 ft | 405 kts | 300° |
| 2026-04-21 14:02 | 35.76428 | -10.07367 | 37809 ft | 416 kts | 312° |
| 2026-04-21 14:02 | 35.79858 | -10.09750 | 37810 ft | 439 kts | 338° |
| 2026-04-21 14:02 | 35.82929 | -10.10220 | 37808 ft | 454 kts | 0° |
| 2026-04-21 14:03 | 35.88912 | -10.07546 | 37823 ft | 466 kts | 27° |
| 2026-04-21 14:03 | 35.94569 | -10.03660 | 37821 ft | 466 kts | 27° |
| 2026-04-21 14:04 | 35.99970 | -9.99321 | 37799 ft | 467 kts | 50° |
| 2026-04-21 14:04 | 36.01699 | -9.95958 | 37807 ft | 461 kts | 73° |
| 2026-04-21 14:04 | 36.02354 | -9.92170 | 37808 ft | 448 kts | 96° |
| 2026-04-21 14:04 | 36.01892 | -9.88478 | 37808 ft | 430 kts | 118° |
| 2026-04-21 14:05 | 36.00418 | -9.85380 | 37809 ft | 410 kts | 140° |
| 2026-04-21 14:05 | 35.98288 | -9.83183 | 37814 ft | 395 kts | 156° |
| 2026-04-21 14:05 | 35.95837 | -9.81809 | 37812 ft | 383 kts | 170° |
| 2026-04-21 14:05 | 35.93257 | -9.81276 | 37811 ft | 373 kts | 184° |
| 2026-04-21 14:06 | 35.90714 | -9.81601 | 37811 ft | 365 kts | 198° |
| 2026-04-21 14:06 | 35.88375 | -9.82709 | 37812 ft | 361 kts | 209° |
| 2026-04-21 14:06 | 35.86142 | -9.84175 | 37812 ft | 361 kts | 210° |
| 2026-04-21 14:07 | 35.81712 | -9.87051 | 37810 ft | 361 kts | 209° |
| 2026-04-21 14:07 | 35.77288 | -9.89973 | 37803 ft | 360 kts | 216° |
| 2026-04-21 14:07 | 35.75457 | -9.92028 | 37804 ft | 360 kts | 231° |
| 2026-04-21 14:08 | 35.74152 | -9.94689 | 37807 ft | 364 kts | 245° |
| 2026-04-21 14:08 | 35.73491 | -9.97708 | 37808 ft | 372 kts | 259° |
| 2026-04-21 14:08 | 35.73544 | -10.00898 | 37809 ft | 383 kts | 274° |
| 2026-04-21 14:08 | 35.74367 | -10.04034 | 37809 ft | 396 kts | 290° |
| 2026-04-21 14:09 | 35.75996 | -10.06866 | 37809 ft | 413 kts | 308° |
| 2026-04-21 14:09 | 35.78326 | -10.08992 | 37809 ft | 430 kts | 327° |
| 2026-04-21 14:09 | 35.81205 | -10.10126 | 37808 ft | 447 kts | 348° |
| 2026-04-21 14:09 | 35.84330 | -10.10005 | 37809 ft | 460 kts | 10° |
| 2026-04-21 14:10 | 35.87358 | -10.08572 | 37825 ft | 466 kts | 25° |
| 2026-04-21 14:10 | 35.93013 | -10.04715 | 37822 ft | 466 kts | 27° |
| 2026-04-21 14:11 | 35.98648 | -10.00788 | 37808 ft | 467 kts | 38° |
| 2026-04-21 14:11 | 36.00860 | -9.97917 | 37807 ft | 465 kts | 60° |
| 2026-04-21 14:11 | 36.02134 | -9.94275 | 37810 ft | 456 kts | 83° |
| 2026-04-21 14:11 | 36.02285 | -9.90481 | 37811 ft | 441 kts | 105° |
| 2026-04-21 14:12 | 36.01357 | -9.87008 | 37811 ft | 421 kts | 128° |
| 2026-04-21 14:12 | 35.99541 | -9.84313 | 37817 ft | 403 kts | 148° |
| 2026-04-21 14:12 | 35.97238 | -9.82477 | 37815 ft | 390 kts | 162° |
| 2026-04-21 14:12 | 35.94702 | -9.81468 | 37813 ft | 378 kts | 176° |
| 2026-04-21 14:13 | 35.92104 | -9.81314 | 37811 ft | 369 kts | 191° |
| 2026-04-21 14:13 | 35.89633 | -9.82008 | 37810 ft | 363 kts | 204° |
| 2026-04-21 14:13 | 35.87375 | -9.83364 | 37815 ft | 361 kts | 210° |
| 2026-04-21 14:14 | 35.82958 | -9.86246 | 37810 ft | 361 kts | 209° |
| 2026-04-21 14:14 | 35.78486 | -9.89134 | 37809 ft | 361 kts | 210° |
| 2026-04-21 14:14 | 35.76415 | -9.90797 | 37798 ft | 360 kts | 223° |
| 2026-04-21 14:15 | 35.74807 | -9.93146 | 37806 ft | 362 kts | 237° |
| 2026-04-21 14:15 | 35.73781 | -9.95972 | 37808 ft | 367 kts | 251° |
| 2026-04-21 14:15 | 35.73423 | -9.99118 | 37809 ft | 376 kts | 266° |
| 2026-04-21 14:15 | 35.73814 | -10.02319 | 37809 ft | 388 kts | 281° |
| 2026-04-21 14:16 | 35.74983 | -10.05335 | 37809 ft | 403 kts | 298° |
| 2026-04-21 14:16 | 35.76938 | -10.07900 | 37809 ft | 420 kts | 316° |
| 2026-04-21 14:16 | 35.79554 | -10.09637 | 37809 ft | 438 kts | 336° |
| 2026-04-21 14:16 | 35.82599 | -10.10239 | 37810 ft | 453 kts | 358° |
| 2026-04-21 14:17 | 35.85722 | -10.09502 | 37814 ft | 464 kts | 20° |
| 2026-04-21 14:17 | 35.91438 | -10.05801 | 37833 ft | 466 kts | 27° |
| 2026-04-21 14:18 | 35.97116 | -10.01964 | 37833 ft | 466 kts | 28° |
| 2026-04-21 14:18 | 35.99758 | -9.99596 | 37811 ft | 467 kts | 48° |
| 2026-04-21 14:18 | 36.01559 | -9.96350 | 37817 ft | 462 kts | 70° |
| 2026-04-21 14:18 | 36.02330 | -9.92594 | 37819 ft | 450 kts | 93° |
| 2026-04-21 14:19 | 36.01986 | -9.88870 | 37819 ft | 432 kts | 116° |
| 2026-04-21 14:19 | 36.00599 | -9.85669 | 37818 ft | 412 kts | 138° |
| 2026-04-21 14:19 | 35.98515 | -9.83382 | 37824 ft | 397 kts | 155° |
| 2026-04-21 14:19 | 35.96090 | -9.81922 | 37822 ft | 384 kts | 169° |
| 2026-04-21 14:20 | 35.93517 | -9.81302 | 37820 ft | 374 kts | 183° |
| 2026-04-21 14:20 | 35.90962 | -9.81540 | 37819 ft | 366 kts | 197° |
| 2026-04-21 14:20 | 35.88576 | -9.82591 | 37817 ft | 361 kts | 209° |
| 2026-04-21 14:21 | 35.84161 | -9.85471 | 37817 ft | 361 kts | 210° |
| 2026-04-21 14:21 | 35.79718 | -9.88342 | 37816 ft | 361 kts | 209° |
| 2026-04-21 14:22 | 35.75611 | -9.91809 | 37811 ft | 360 kts | 229° |
| 2026-04-21 14:22 | 35.74263 | -9.94395 | 37815 ft | 364 kts | 243° |
| 2026-04-21 14:22 | 35.73534 | -9.97378 | 37816 ft | 371 kts | 258° |
| 2026-04-21 14:22 | 35.73512 | -10.00585 | 37817 ft | 381 kts | 273° |
| 2026-04-21 14:23 | 35.74255 | -10.03733 | 37817 ft | 395 kts | 289° |
| 2026-04-21 14:23 | 35.75792 | -10.06592 | 37818 ft | 411 kts | 306° |
| 2026-04-21 14:23 | 35.78059 | -10.08810 | 37816 ft | 428 kts | 325° |
| 2026-04-21 14:23 | 35.80940 | -10.10072 | 37817 ft | 445 kts | 346° |
| 2026-04-21 14:24 | 35.84067 | -10.10065 | 37818 ft | 459 kts | 8° |
| 2026-04-21 14:24 | 35.87055 | -10.08759 | 37833 ft | 465 kts | 25° |
| 2026-04-21 14:24 | 35.89937 | -10.06841 | 37836 ft | 466 kts | 28° |
| 2026-04-21 14:25 | 35.95599 | -10.02971 | 37834 ft | 466 kts | 26° |
| 2026-04-21 14:25 | 36.00702 | -9.98194 | 37814 ft | 465 kts | 58° |
| 2026-04-21 14:25 | 36.02052 | -9.94645 | 37818 ft | 457 kts | 81° |
| 2026-04-21 14:26 | 36.02307 | -9.90834 | 37819 ft | 442 kts | 103° |
| 2026-04-21 14:26 | 36.01469 | -9.87307 | 37819 ft | 423 kts | 126° |
| 2026-04-21 14:26 | 35.99722 | -9.84537 | 37824 ft | 404 kts | 146° |
| 2026-04-21 14:26 | 35.97425 | -9.82604 | 37822 ft | 391 kts | 161° |
| 2026-04-21 14:27 | 35.94918 | -9.81529 | 37819 ft | 379 kts | 175° |
| 2026-04-21 14:27 | 35.92342 | -9.81299 | 37818 ft | 370 kts | 189° |
| 2026-04-21 14:27 | 35.89849 | -9.81918 | 37816 ft | 363 kts | 203° |
| 2026-04-21 14:28 | 35.85345 | -9.84701 | 37818 ft | 361 kts | 210° |
| 2026-04-21 14:28 | 35.80902 | -9.87578 | 37816 ft | 361 kts | 209° |
| 2026-04-21 14:29 | 35.76575 | -9.90630 | 37805 ft | 360 kts | 221° |
| 2026-04-21 14:29 | 35.74924 | -9.92926 | 37813 ft | 361 kts | 236° |
| 2026-04-21 14:29 | 35.73842 | -9.95729 | 37816 ft | 367 kts | 250° |
| 2026-04-21 14:29 | 35.73426 | -9.98847 | 37817 ft | 375 kts | 264° |
| 2026-04-21 14:30 | 35.73751 | -10.02048 | 37817 ft | 387 kts | 280° |
| 2026-04-21 14:30 | 35.74871 | -10.05125 | 37817 ft | 402 kts | 297° |
| 2026-04-21 14:30 | 35.76769 | -10.07735 | 37816 ft | 419 kts | 315° |
| 2026-04-21 14:30 | 35.79329 | -10.09538 | 37816 ft | 436 kts | 334° |
| 2026-04-21 14:31 | 35.82319 | -10.10238 | 37815 ft | 452 kts | 355° |
| 2026-04-21 14:31 | 35.85459 | -10.09621 | 37816 ft | 463 kts | 18° |
| 2026-04-21 14:31 | 35.88384 | -10.07905 | 37834 ft | 466 kts | 27° |
| 2026-04-21 14:32 | 35.94025 | -10.04026 | 37829 ft | 466 kts | 27° |
| 2026-04-21 14:32 | 35.99569 | -9.99829 | 37807 ft | 467 kts | 46° |
| 2026-04-21 14:32 | 36.01448 | -9.96641 | 37816 ft | 462 kts | 69° |
| 2026-04-21 14:33 | 36.02313 | -9.92875 | 37820 ft | 451 kts | 91° |
| 2026-04-21 14:33 | 36.02050 | -9.89134 | 37821 ft | 434 kts | 114° |
| 2026-04-21 14:33 | 36.00758 | -9.85918 | 37819 ft | 414 kts | 136° |
| 2026-04-21 14:33 | 35.98714 | -9.83548 | 37823 ft | 398 kts | 153° |
| 2026-04-21 14:34 | 35.96317 | -9.82019 | 37820 ft | 385 kts | 168° |
| 2026-04-21 14:34 | 35.93749 | -9.81321 | 37818 ft | 375 kts | 181° |
| 2026-04-21 14:34 | 35.91178 | -9.81484 | 37816 ft | 366 kts | 195° |
| 2026-04-21 14:34 | 35.88769 | -9.82472 | 37815 ft | 361 kts | 208° |
| 2026-04-21 14:35 | 35.86570 | -9.83901 | 37819 ft | 361 kts | 210° |
| 2026-04-21 14:35 | 35.82106 | -9.86802 | 37817 ft | 361 kts | 209° |
| 2026-04-21 14:36 | 35.77678 | -9.89682 | 37815 ft | 361 kts | 213° |
| 2026-04-21 14:36 | 35.75753 | -9.91612 | 37811 ft | 360 kts | 228° |
| 2026-04-21 14:36 | 35.74358 | -9.94148 | 37814 ft | 363 kts | 242° |
| 2026-04-21 14:36 | 35.73568 | -9.97115 | 37816 ft | 370 kts | 256° |
| 2026-04-21 14:37 | 35.73484 | -10.00330 | 37817 ft | 381 kts | 271° |
| 2026-04-21 14:37 | 35.74161 | -10.03475 | 37817 ft | 394 kts | 287° |
| 2026-04-21 14:37 | 35.75648 | -10.06393 | 37816 ft | 410 kts | 305° |
| 2026-04-21 14:37 | 35.77869 | -10.08676 | 37815 ft | 427 kts | 324° |
| 2026-04-21 14:38 | 35.80657 | -10.10007 | 37815 ft | 444 kts | 344° |
| 2026-04-21 14:38 | 35.83797 | -10.10120 | 37815 ft | 458 kts | 6° |
| 2026-04-21 14:38 | 35.86821 | -10.08900 | 37829 ft | 465 kts | 25° |
| 2026-04-21 14:39 | 35.92510 | -10.05058 | 37830 ft | 466 kts | 27° |
| 2026-04-21 14:39 | 35.98165 | -10.01197 | 37823 ft | 467 kts | 33° |
| 2026-04-21 14:39 | 36.00534 | -9.98479 | 37813 ft | 466 kts | 56° |
| 2026-04-21 14:40 | 36.01972 | -9.94987 | 37818 ft | 458 kts | 79° |
| 2026-04-21 14:40 | 36.02327 | -9.91138 | 37820 ft | 444 kts | 102° |
| 2026-04-21 14:40 | 36.01580 | -9.87590 | 37818 ft | 425 kts | 124° |
| 2026-04-21 14:40 | 35.99887 | -9.84732 | 37822 ft | 405 kts | 145° |
| 2026-04-21 14:41 | 35.97641 | -9.82746 | 37822 ft | 392 kts | 160° |
| 2026-04-21 14:41 | 35.95132 | -9.81592 | 37818 ft | 380 kts | 174° |
| 2026-04-21 14:41 | 35.92543 | -9.81292 | 37817 ft | 371 kts | 188° |
| 2026-04-21 14:41 | 35.90029 | -9.81850 | 37816 ft | 364 kts | 202° |
| 2026-04-21 14:42 | 35.87751 | -9.83128 | 37822 ft | 361 kts | 210° |
| 2026-04-21 14:42 | 35.83317 | -9.86020 | 37817 ft | 361 kts | 210° |
| 2026-04-21 14:43 | 35.78876 | -9.88888 | 37817 ft | 361 kts | 209° |
| 2026-04-21 14:43 | 35.76734 | -9.90474 | 37805 ft | 359 kts | 220° |
| 2026-04-21 14:43 | 35.75037 | -9.92724 | 37812 ft | 361 kts | 234° |
| 2026-04-21 14:43 | 35.73911 | -9.95481 | 37815 ft | 366 kts | 249° |
| 2026-04-21 14:44 | 35.73438 | -9.98568 | 37816 ft | 374 kts | 263° |
| 2026-04-21 14:44 | 35.73700 | -10.01785 | 37816 ft | 386 kts | 278° |
| 2026-04-21 14:44 | 35.74737 | -10.04851 | 37816 ft | 401 kts | 295° |
| 2026-04-21 14:44 | 35.76577 | -10.07530 | 37816 ft | 418 kts | 313° |
| 2026-04-21 14:45 | 35.79092 | -10.09420 | 37816 ft | 435 kts | 333° |
| 2026-04-21 14:45 | 35.82091 | -10.10225 | 37816 ft | 451 kts | 354° |
| 2026-04-21 14:45 | 35.85210 | -10.09718 | 37819 ft | 462 kts | 16° |
| 2026-04-21 14:45 | 35.88170 | -10.08042 | 37837 ft | 466 kts | 27° |
| 2026-04-21 14:46 | 35.90991 | -10.06109 | 37832 ft | 466 kts | 28° |
| 2026-04-21 14:46 | 35.96672 | -10.02262 | 37831 ft | 466 kts | 27° |
| 2026-04-21 14:46 | 35.99365 | -10.00064 | 37808 ft | 467 kts | 44° |
| 2026-04-21 14:47 | 36.01335 | -9.96917 | 37816 ft | 463 kts | 67° |
| 2026-04-21 14:47 | 36.02280 | -9.93224 | 37819 ft | 452 kts | 89° |
| 2026-04-21 14:47 | 36.02110 | -9.89426 | 37818 ft | 435 kts | 112° |
| 2026-04-21 14:47 | 36.00876 | -9.86118 | 37817 ft | 415 kts | 135° |
| 2026-04-21 14:48 | 35.98868 | -9.83688 | 37822 ft | 399 kts | 152° |
| 2026-04-21 14:48 | 35.96481 | -9.82099 | 37819 ft | 386 kts | 167° |
| 2026-04-21 14:48 | 35.93919 | -9.81347 | 37818 ft | 375 kts | 181° |
| 2026-04-21 14:48 | 35.91347 | -9.81452 | 37816 ft | 367 kts | 195° |
| 2026-04-21 14:49 | 35.88959 | -9.82367 | 37816 ft | 362 kts | 208° |
| 2026-04-21 14:49 | 35.84494 | -9.85259 | 37818 ft | 361 kts | 210° |
| 2026-04-21 14:50 | 35.80806 | -9.87644 | 37817 ft | 361 kts | 209° |
| 2026-04-21 14:50 | 35.75887 | -9.91438 | 37810 ft | 360 kts | 227° |
| 2026-04-21 14:50 | 35.74437 | -9.93965 | 37814 ft | 363 kts | 241° |
| 2026-04-21 14:51 | 35.73607 | -9.96894 | 37816 ft | 370 kts | 255° |
| 2026-04-21 14:51 | 35.73468 | -10.00064 | 37817 ft | 380 kts | 270° |
| 2026-04-21 14:51 | 35.74095 | -10.03265 | 37818 ft | 393 kts | 286° |
| 2026-04-21 14:51 | 35.75513 | -10.06187 | 37818 ft | 409 kts | 303° |
| 2026-04-21 14:52 | 35.77696 | -10.08539 | 37818 ft | 426 kts | 322° |
| 2026-04-21 14:52 | 35.80461 | -10.09947 | 37818 ft | 443 kts | 342° |
| 2026-04-21 14:52 | 35.83584 | -10.10148 | 37818 ft | 457 kts | 5° |
| 2026-04-21 14:52 | 35.86610 | -10.09020 | 37826 ft | 465 kts | 24° |
| 2026-04-21 14:53 | 35.89471 | -10.07158 | 37831 ft | 466 kts | 27° |
| 2026-04-21 14:53 | 35.95136 | -10.03281 | 37830 ft | 466 kts | 26° |
| 2026-04-21 14:54 | 36.00403 | -9.98699 | 37811 ft | 466 kts | 55° |
| 2026-04-21 14:54 | 36.01920 | -9.95222 | 37817 ft | 459 kts | 77° |
| 2026-04-21 14:54 | 36.02348 | -9.91405 | 37817 ft | 445 kts | 100° |
| 2026-04-21 14:54 | 36.01666 | -9.87799 | 37817 ft | 426 kts | 123° |
| 2026-04-21 14:55 | 36.00035 | -9.84901 | 37820 ft | 406 kts | 144° |
| 2026-04-21 14:55 | 35.97807 | -9.82854 | 37821 ft | 393 kts | 159° |
| 2026-04-21 14:55 | 35.95325 | -9.81649 | 37819 ft | 381 kts | 173° |
| 2026-04-21 14:55 | 35.92744 | -9.81287 | 37818 ft | 371 kts | 187° |
| 2026-04-21 14:56 | 35.90221 | -9.81779 | 37817 ft | 364 kts | 201° |
| 2026-04-21 14:56 | 35.85687 | -9.84484 | 37819 ft | 361 kts | 210° |
| 2026-04-21 14:57 | 35.81264 | -9.87349 | 37817 ft | 361 kts | 210° |
| 2026-04-21 14:57 | 35.76884 | -9.90334 | 37806 ft | 360 kts | 219° |
| 2026-04-21 14:57 | 35.75141 | -9.92553 | 37813 ft | 361 kts | 234° |
| 2026-04-21 14:58 | 35.73978 | -9.95265 | 37815 ft | 366 kts | 248° |
| 2026-04-21 14:58 | 35.73452 | -9.98362 | 37817 ft | 374 kts | 262° |
| 2026-04-21 14:58 | 35.73667 | -10.01588 | 37817 ft | 385 kts | 278° |
| 2026-04-21 14:58 | 35.74657 | -10.04671 | 37818 ft | 400 kts | 294° |
| 2026-04-21 14:59 | 35.76431 | -10.07363 | 37818 ft | 416 kts | 312° |
| 2026-04-21 14:59 | 35.78895 | -10.09311 | 37818 ft | 434 kts | 331° |
| 2026-04-21 14:59 | 35.81897 | -10.10205 | 37817 ft | 450 kts | 353° |
| 2026-04-21 14:59 | 35.85000 | -10.09790 | 37819 ft | 462 kts | 15° |
| 2026-04-21 15:00 | 35.87951 | -10.08179 | 37835 ft | 466 kts | 26° |
| 2026-04-21 15:00 | 35.93630 | -10.04293 | 37832 ft | 466 kts | 27° |
| 2026-04-21 15:01 | 35.99193 | -10.00249 | 37812 ft | 467 kts | 43° |
| 2026-04-21 15:01 | 36.01225 | -9.97158 | 37820 ft | 463 kts | 65° |
| 2026-04-21 15:01 | 36.02244 | -9.93462 | 37821 ft | 453 kts | 88° |
| 2026-04-21 15:01 | 36.02139 | -9.89658 | 37821 ft | 436 kts | 111° |
| 2026-04-21 15:02 | 36.00969 | -9.86327 | 37820 ft | 416 kts | 134° |
| 2026-04-21 15:02 | 35.99009 | -9.83848 | 37825 ft | 400 kts | 151° |
| 2026-04-21 15:02 | 35.96630 | -9.82192 | 37790 ft | 389 kts | 166° |
| 2026-04-21 15:02 | 35.94047 | -9.81375 | 37769 ft | 382 kts | 180° |
| 2026-04-21 15:03 | 35.91436 | -9.81427 | 37755 ft | 377 kts | 195° |
| 2026-04-21 15:03 | 35.88943 | -9.82343 | 37749 ft | 373 kts | 209° |
| 2026-04-21 15:03 | 35.86622 | -9.83828 | 37791 ft | 376 kts | 212° |
| 2026-04-21 15:04 | 35.81978 | -9.86883 | 37816 ft | 384 kts | 211° |
| 2026-04-21 15:04 | 35.77248 | -9.90015 | 37816 ft | 382 kts | 218° |
| 2026-04-21 15:04 | 35.75333 | -9.92185 | 37816 ft | 377 kts | 234° |
| 2026-04-21 15:05 | 35.74036 | -9.94952 | 37821 ft | 376 kts | 250° |
| 2026-04-21 15:05 | 35.73590 | -10.01296 | 37821 ft | 382 kts | 280° |
| 2026-04-21 15:05 | 35.74504 | -10.04360 | 37820 ft | 389 kts | 296° |
| 2026-04-21 15:06 | 35.76151 | -10.07022 | 37819 ft | 399 kts | 312° |
| 2026-04-21 15:06 | 35.78466 | -10.09021 | 37819 ft | 410 kts | 330° |
| 2026-04-21 15:06 | 35.81190 | -10.10045 | 37820 ft | 423 kts | 348° |
| 2026-04-21 15:06 | 35.84151 | -10.09946 | 37821 ft | 435 kts | 8° |
| 2026-04-21 15:07 | 35.87014 | -10.08650 | 37833 ft | 443 kts | 24° |
| 2026-04-21 15:07 | 35.89758 | -10.06853 | 37832 ft | 444 kts | 25° |
| 2026-04-21 15:07 | 35.95161 | -10.03253 | 37830 ft | 443 kts | 24° |
| 2026-04-21 15:08 | 36.00164 | -9.98893 | 37812 ft | 451 kts | 52° |
| 2026-04-21 15:08 | 36.01605 | -9.95457 | 37817 ft | 453 kts | 75° |
| 2026-04-21 15:08 | 36.01962 | -9.91649 | 37819 ft | 449 kts | 98° |
| 2026-04-21 15:09 | 36.01205 | -9.87985 | 37818 ft | 440 kts | 120° |
| 2026-04-21 15:09 | 35.99500 | -9.84930 | 37821 ft | 429 kts | 140° |
| 2026-04-21 15:09 | 35.97140 | -9.82718 | 37821 ft | 417 kts | 158° |
| 2026-04-21 15:09 | 35.94456 | -9.81539 | 37820 ft | 406 kts | 175° |
| 2026-04-21 15:10 | 35.91691 | -9.81406 | 37818 ft | 395 kts | 193° |
| 2026-04-21 15:10 | 35.89080 | -9.82270 | 37818 ft | 386 kts | 208° |
| 2026-04-21 15:10 | 35.84364 | -9.85324 | 37819 ft | 384 kts | 211° |
| 2026-04-21 15:11 | 35.79622 | -9.88410 | 37817 ft | 384 kts | 211° |
| 2026-04-21 15:11 | 35.75348 | -9.92164 | 37811 ft | 377 kts | 234° |
| 2026-04-21 15:12 | 35.74044 | -9.94932 | 37815 ft | 376 kts | 249° |
| 2026-04-21 15:12 | 35.73440 | -9.98045 | 37817 ft | 377 kts | 264° |
| 2026-04-21 15:12 | 35.73589 | -10.01276 | 37819 ft | 382 kts | 280° |
| 2026-04-21 15:12 | 35.74500 | -10.04345 | 37819 ft | 389 kts | 296° |
| 2026-04-21 15:13 | 35.78438 | -10.09002 | 37820 ft | 410 kts | 330° |
| 2026-04-21 15:13 | 35.81186 | -10.10043 | 37820 ft | 423 kts | 348° |
| 2026-04-21 15:13 | 35.84143 | -10.09946 | 37821 ft | 435 kts | 8° |
| 2026-04-21 15:14 | 35.86998 | -10.08658 | 37833 ft | 443 kts | 24° |
| 2026-04-21 15:14 | 35.89725 | -10.06874 | 37832 ft | 444 kts | 25° |
| 2026-04-21 15:14 | 35.95151 | -10.03261 | 37830 ft | 443 kts | 24° |
| 2026-04-21 15:15 | 36.00164 | -9.98894 | 37812 ft | 451 kts | 52° |
| 2026-04-21 15:15 | 36.01608 | -9.95446 | 37817 ft | 453 kts | 75° |
| 2026-04-21 15:15 | 36.01963 | -9.91669 | 37819 ft | 449 kts | 98° |
| 2026-04-21 15:16 | 36.01205 | -9.87983 | 37818 ft | 440 kts | 120° |
| 2026-04-21 15:16 | 35.99508 | -9.84939 | 37821 ft | 429 kts | 140° |
| 2026-04-21 15:16 | 35.97167 | -9.82736 | 37820 ft | 418 kts | 158° |
| 2026-04-21 15:16 | 35.94500 | -9.81550 | 37820 ft | 406 kts | 175° |
| 2026-04-21 15:17 | 35.91725 | -9.81401 | 37817 ft | 395 kts | 192° |
| 2026-04-21 15:17 | 35.89105 | -9.82258 | 37817 ft | 386 kts | 208° |
| 2026-04-21 15:17 | 35.84367 | -9.85323 | 37817 ft | 384 kts | 211° |
| 2026-04-21 15:18 | 35.79661 | -9.88386 | 37815 ft | 385 kts | 211° |
| 2026-04-21 15:18 | 35.75361 | -9.92147 | 37809 ft | 377 kts | 234° |
| 2026-04-21 15:19 | 35.74056 | -9.94900 | 37814 ft | 376 kts | 249° |
| 2026-04-21 15:19 | 35.73444 | -9.97997 | 37816 ft | 377 kts | 264° |
| 2026-04-21 15:19 | 35.73583 | -10.01238 | 37817 ft | 382 kts | 279° |
| 2026-04-21 15:19 | 35.74490 | -10.04322 | 37817 ft | 389 kts | 295° |
| 2026-04-21 15:20 | 35.76129 | -10.06992 | 37818 ft | 399 kts | 312° |
| 2026-04-21 15:20 | 35.78418 | -10.08990 | 37818 ft | 410 kts | 329° |
| 2026-04-21 15:20 | 35.81147 | -10.10037 | 37818 ft | 423 kts | 348° |
| 2026-04-21 15:20 | 35.84116 | -10.09953 | 37819 ft | 435 kts | 8° |
| 2026-04-21 15:21 | 35.86985 | -10.08667 | 37831 ft | 442 kts | 24° |
| 2026-04-21 15:21 | 35.89709 | -10.06887 | 37831 ft | 444 kts | 25° |
| 2026-04-21 15:21 | 35.95130 | -10.03275 | 37829 ft | 443 kts | 24° |
| 2026-04-21 15:22 | 36.00154 | -9.98913 | 37812 ft | 451 kts | 52° |
| 2026-04-21 15:22 | 36.01587 | -9.95535 | 37817 ft | 453 kts | 75° |
| 2026-04-21 15:22 | 36.01968 | -9.91718 | 37818 ft | 449 kts | 97° |
| 2026-04-21 15:23 | 36.01229 | -9.88040 | 37817 ft | 440 kts | 120° |
| 2026-04-21 15:23 | 35.99524 | -9.84957 | 37820 ft | 429 kts | 140° |
| 2026-04-21 15:23 | 35.97205 | -9.82760 | 37819 ft | 418 kts | 158° |
| 2026-04-21 15:23 | 35.94539 | -9.81559 | 37818 ft | 406 kts | 175° |
| 2026-04-21 15:24 | 35.91753 | -9.81398 | 37816 ft | 395 kts | 192° |
| 2026-04-21 15:24 | 35.89149 | -9.82236 | 37817 ft | 387 kts | 208° |
| 2026-04-21 15:24 | 35.84419 | -9.85290 | 37817 ft | 384 kts | 212° |
| 2026-04-21 15:25 | 35.79695 | -9.88365 | 37815 ft | 385 kts | 211° |
| 2026-04-21 15:25 | 35.75380 | -9.92120 | 37809 ft | 377 kts | 234° |
| 2026-04-21 15:26 | 35.74070 | -9.94863 | 37814 ft | 376 kts | 249° |
| 2026-04-21 15:26 | 35.73448 | -9.97971 | 37815 ft | 377 kts | 264° |
| 2026-04-21 15:26 | 35.73574 | -10.01176 | 37816 ft | 382 kts | 279° |
| 2026-04-21 15:26 | 35.74467 | -10.04265 | 37817 ft | 389 kts | 295° |
| 2026-04-21 15:27 | 35.76095 | -10.06951 | 37817 ft | 399 kts | 311° |
| 2026-04-21 15:27 | 35.78372 | -10.08962 | 37818 ft | 410 kts | 329° |
| 2026-04-21 15:27 | 35.81110 | -10.10030 | 37818 ft | 422 kts | 348° |
| 2026-04-21 15:27 | 35.84083 | -10.09961 | 37819 ft | 434 kts | 8° |
| 2026-04-21 15:28 | 35.86958 | -10.08684 | 37831 ft | 443 kts | 23° |
| 2026-04-21 15:28 | 35.89682 | -10.06906 | 37831 ft | 444 kts | 25° |
| 2026-04-21 15:28 | 35.95078 | -10.03310 | 37830 ft | 443 kts | 24° |
| 2026-04-21 15:29 | 36.00116 | -9.98974 | 37811 ft | 451 kts | 52° |
| 2026-04-21 15:29 | 36.01586 | -9.95546 | 37817 ft | 453 kts | 75° |
| 2026-04-21 15:29 | 36.01973 | -9.91769 | 37818 ft | 449 kts | 97° |
| 2026-04-21 15:30 | 36.01239 | -9.88053 | 37817 ft | 440 kts | 120° |
| 2026-04-21 15:30 | 35.99560 | -9.84998 | 37819 ft | 430 kts | 140° |
| 2026-04-21 15:30 | 35.97239 | -9.82780 | 37819 ft | 418 kts | 158° |
| 2026-04-21 15:30 | 35.94553 | -9.81561 | 37818 ft | 406 kts | 175° |
| 2026-04-21 15:31 | 35.91805 | -9.81390 | 37817 ft | 395 kts | 192° |
| 2026-04-21 15:31 | 35.89175 | -9.82222 | 37816 ft | 387 kts | 208° |
| 2026-04-21 15:31 | 35.84444 | -9.85273 | 37817 ft | 384 kts | 211° |
| 2026-04-21 15:32 | 35.79717 | -9.88350 | 37815 ft | 385 kts | 211° |
| 2026-04-21 15:32 | 35.75403 | -9.92083 | 37809 ft | 377 kts | 234° |
| 2026-04-21 15:33 | 35.74084 | -9.94818 | 37813 ft | 376 kts | 249° |
| 2026-04-21 15:33 | 35.73450 | -9.97930 | 37815 ft | 377 kts | 264° |
| 2026-04-21 15:33 | 35.73566 | -10.01130 | 37817 ft | 382 kts | 279° |
| 2026-04-21 15:33 | 35.74450 | -10.04229 | 37817 ft | 389 kts | 295° |
| 2026-04-21 15:34 | 35.76061 | -10.06910 | 37817 ft | 398 kts | 311° |
| 2026-04-21 15:34 | 35.78319 | -10.08929 | 37818 ft | 410 kts | 329° |
| 2026-04-21 15:34 | 35.81068 | -10.10023 | 37818 ft | 422 kts | 347° |
| 2026-04-21 15:34 | 35.84038 | -10.09972 | 37819 ft | 434 kts | 7° |
| 2026-04-21 15:35 | 35.86914 | -10.08713 | 37831 ft | 443 kts | 23° |
| 2026-04-21 15:35 | 35.89636 | -10.06937 | 37831 ft | 444 kts | 25° |
| 2026-04-21 15:35 | 35.95031 | -10.03342 | 37830 ft | 443 kts | 24° |
| 2026-04-21 15:36 | 36.00031 | -9.99078 | 37808 ft | 439 kts | 52° |
| 2026-04-21 15:36 | 36.01442 | -9.95796 | 37809 ft | 432 kts | 76° |
| 2026-04-21 15:36 | 36.01798 | -9.92167 | 37813 ft | 420 kts | 97° |
| 2026-04-21 15:37 | 36.01210 | -9.88723 | 37812 ft | 406 kts | 117° |
| 2026-04-21 15:37 | 35.99868 | -9.85764 | 37809 ft | 389 kts | 135° |
| 2026-04-21 15:37 | 35.97969 | -9.83498 | 37809 ft | 372 kts | 152° |
| 2026-04-21 15:37 | 35.95748 | -9.82047 | 37809 ft | 354 kts | 168° |
| 2026-04-21 15:38 | 35.93407 | -9.81410 | 37808 ft | 338 kts | 183° |
| 2026-04-21 15:38 | 35.91138 | -9.81526 | 37808 ft | 323 kts | 197° |
| 2026-04-21 15:38 | 35.88995 | -9.82223 | 37810 ft | 312 kts | 205° |
| 2026-04-21 15:38 | 35.86986 | -9.83155 | 37807 ft | 303 kts | 209° |
| 2026-04-21 15:39 | 35.85162 | -9.84277 | 37610 ft | 292 kts | 221° |
| 2026-04-21 15:39 | 35.83973 | -9.86257 | 35872 ft | 337 kts | 267° |
| 2026-04-21 15:39 | 35.85318 | -9.88091 | 31113 ft | 483 kts | 10° |
| 2026-04-21 15:39 | 35.86667 | -9.85745 | 20997 ft | 579 kts | 101° |
| 2026-04-21 15:40 | 35.85215 | -9.83618 | 8030 ft | 535 kts | 174° |
| 2026-04-21 15:40 | 35.82587 | -9.85057 | 2778 ft | 471 kts | 243° |
| 2026-04-21 15:40 | 35.83677 | -9.87236 | 6563 ft | 372 kts | 1° |
| 2026-04-21 15:40 | 35.84926 | -9.85423 | 1103 ft | 463 kts | 130° |
| 2026-04-21 15:41 | 35.84701 | -9.85161 | -3 ft | 3 kts | 154° |
| 2026-04-21 15:41 | 35.84687 | -9.85152 | -3 ft | 1 kts | 155° |
| 2026-04-21 15:41 | 35.84678 | -9.85147 | -3 ft | 1 kts | 155° |
| 2026-04-21 15:41 | 35.84673 | -9.85143 | -3 ft | 0 kts | 155° |
| 2026-04-21 15:42 | 35.84669 | -9.85140 | -2 ft | 0 kts | 156° |
| 2026-04-21 15:42 | 35.84666 | -9.85137 | -3 ft | 0 kts | 156° |
| 2026-04-21 15:42 | 35.84663 | -9.85135 | -3 ft | 0 kts | 156° |
| 2026-04-21 15:42 | 35.84661 | -9.85133 | -3 ft | 0 kts | 156° |
| 2026-04-21 15:43 | 35.84659 | -9.85131 | -2 ft | 0 kts | 156° |
| 2026-04-21 15:43 | 35.84658 | -9.85130 | -2 ft | 0 kts | 156° |
| 2026-04-21 15:43 | 35.84656 | -9.85128 | -2 ft | 0 kts | 156° |
| 2026-04-21 15:43 | 35.84655 | -9.85127 | -2 ft | 0 kts | 156° |
| 2026-04-21 15:44 | 35.84654 | -9.85125 | -2 ft | 0 kts | 156° |
| 2026-04-21 15:44 | 35.84652 | -9.85124 | -2 ft | 0 kts | 157° |
| 2026-04-21 15:44 | 35.84650 | -9.85122 | -2 ft | 0 kts | 157° |
| 2026-04-21 15:44 | 35.84649 | -9.85121 | -2 ft | 0 kts | 157° |
| 2026-04-21 15:45 | 35.84648 | -9.85119 | -2 ft | 0 kts | 157° |
| 2026-04-21 15:45 | 35.84647 | -9.85118 | -2 ft | 0 kts | 157° |
| 2026-04-21 15:45 | 35.84645 | -9.85117 | -2 ft | 0 kts | 158° |
| 2026-04-21 15:45 | 35.84644 | -9.85115 | -2 ft | 0 kts | 158° |
| 2026-04-21 15:46 | 35.84643 | -9.85114 | -2 ft | 0 kts | 158° |
| 2026-04-21 15:46 | 35.84642 | -9.85112 | -2 ft | 0 kts | 158° |
| 2026-04-21 15:46 | 35.84640 | -9.85111 | -2 ft | 0 kts | 158° |
| 2026-04-21 15:46 | 35.84639 | -9.85110 | -2 ft | 0 kts | 158° |
| 2026-04-21 15:47 | 35.84638 | -9.85108 | -2 ft | 0 kts | 158° |
| 2026-04-21 15:47 | 35.84637 | -9.85107 | -2 ft | 0 kts | 159° |
| 2026-04-21 15:47 | 35.84636 | -9.85105 | -2 ft | 0 kts | 159° |
| 2026-04-21 15:47 | 35.84634 | -9.85104 | -2 ft | 0 kts | 159° |
| 2026-04-21 15:48 | 35.84633 | -9.85102 | -2 ft | 0 kts | 159° |
| 2026-04-21 15:48 | 35.84631 | -9.85101 | -2 ft | 0 kts | 159° |
| 2026-04-21 15:48 | 35.84630 | -9.85099 | -2 ft | 0 kts | 159° |
| 2026-04-21 15:48 | 35.84628 | -9.85098 | -2 ft | 0 kts | 159° |
| 2026-04-21 15:49 | 35.84627 | -9.85096 | -2 ft | 0 kts | 159° |
| 2026-04-21 15:49 | 35.84625 | -9.85094 | -2 ft | 0 kts | 160° |
| 2026-04-21 15:49 | 35.84624 | -9.85093 | -2 ft | 0 kts | 160° |
| 2026-04-21 15:49 | 35.84622 | -9.85092 | -2 ft | 0 kts | 160° |
| 2026-04-21 15:50 | 35.84621 | -9.85090 | -2 ft | 0 kts | 160° |
| 2026-04-21 15:50 | 35.84619 | -9.85088 | -2 ft | 0 kts | 160° |
| 2026-04-21 15:50 | 35.84618 | -9.85087 | -2 ft | 0 kts | 160° |
| 2026-04-21 15:50 | 35.84616 | -9.85085 | -2 ft | 0 kts | 160° |
| 2026-04-21 15:51 | 35.84615 | -9.85084 | -2 ft | 0 kts | 160° |
| 2026-04-21 15:51 | 35.84613 | -9.85083 | -2 ft | 0 kts | 161° |
| 2026-04-21 15:51 | 35.84612 | -9.85081 | -2 ft | 0 kts | 161° |
| 2026-04-21 15:51 | 35.84610 | -9.85080 | -2 ft | 0 kts | 161° |
| 2026-04-21 15:52 | 35.84609 | -9.85078 | -2 ft | 0 kts | 161° |
| 2026-04-21 15:52 | 35.84607 | -9.85077 | -2 ft | 0 kts | 161° |
| 2026-04-21 15:52 | 35.84607 | -9.85076 | -2 ft | 0 kts | 161° |
| 2026-04-21 15:52 | 35.84605 | -9.85074 | -2 ft | 0 kts | 161° |
| 2026-04-21 15:53 | 35.84603 | -9.85072 | -2 ft | 0 kts | 162° |
| 2026-04-21 15:53 | 35.84602 | -9.85071 | -2 ft | 0 kts | 162° |
| 2026-04-21 15:53 | 35.84600 | -9.85070 | -2 ft | 0 kts | 162° |
| 2026-04-21 15:53 | 35.84599 | -9.85068 | -2 ft | 0 kts | 162° |
| 2026-04-21 15:54 | 35.84598 | -9.85067 | -2 ft | 0 kts | 162° |
| 2026-04-21 15:54 | 35.84596 | -9.85066 | -2 ft | 0 kts | 162° |
| 2026-04-21 15:54 | 35.84595 | -9.85064 | -2 ft | 0 kts | 162° |
| 2026-04-21 15:54 | 35.84594 | -9.85063 | -2 ft | 0 kts | 163° |
| 2026-04-21 15:55 | 35.84592 | -9.85061 | -2 ft | 0 kts | 163° |
| 2026-04-21 15:55 | 35.84591 | -9.85060 | -2 ft | 0 kts | 163° |
| 2026-04-21 15:55 | 35.84589 | -9.85059 | -2 ft | 0 kts | 163° |
| 2026-04-21 15:55 | 35.84588 | -9.85057 | -2 ft | 0 kts | 163° |
| 2026-04-21 15:56 | 35.84586 | -9.85056 | -2 ft | 0 kts | 164° |
| 2026-04-21 15:56 | 35.84585 | -9.85055 | -2 ft | 0 kts | 164° |
| 2026-04-21 15:56 | 35.84584 | -9.85053 | -2 ft | 0 kts | 164° |
| 2026-04-21 15:56 | 35.84583 | -9.85052 | -2 ft | 0 kts | 164° |
| 2026-04-21 15:57 | 35.84581 | -9.85051 | -2 ft | 0 kts | 164° |
| 2026-04-21 15:57 | 35.84580 | -9.85049 | -2 ft | 0 kts | 165° |
| 2026-04-21 15:57 | 35.84579 | -9.85048 | -2 ft | 0 kts | 165° |
| 2026-04-21 15:57 | 35.84578 | -9.85047 | -2 ft | 0 kts | 165° |
| 2026-04-21 15:58 | 35.84576 | -9.85046 | -2 ft | 0 kts | 165° |
| 2026-04-21 15:58 | 35.84575 | -9.85044 | -2 ft | 0 kts | 165° |
| 2026-04-21 15:58 | 35.84573 | -9.85043 | -2 ft | 0 kts | 165° |
| 2026-04-21 15:58 | 35.84572 | -9.85042 | -2 ft | 0 kts | 165° |
| 2026-04-21 15:59 | 35.84571 | -9.85041 | -2 ft | 0 kts | 165° |
| 2026-04-21 15:59 | 35.84569 | -9.85039 | -2 ft | 0 kts | 166° |
| 2026-04-21 15:59 | 35.84567 | -9.85037 | -2 ft | 0 kts | 166° |
| 2026-04-21 15:59 | 35.84566 | -9.85036 | -2 ft | 0 kts | 166° |
| 2026-04-21 16:00 | 35.84564 | -9.85035 | -2 ft | 0 kts | 166° |
| 2026-04-21 16:00 | 35.84562 | -9.85033 | -2 ft | 0 kts | 166° |
| 2026-04-21 16:00 | 35.84561 | -9.85032 | -2 ft | 0 kts | 166° |
| 2026-04-21 16:00 | 35.84559 | -9.85031 | -2 ft | 0 kts | 166° |
| 2026-04-21 16:01 | 35.84558 | -9.85030 | -2 ft | 0 kts | 167° |
| 2026-04-21 16:01 | 35.84557 | -9.85029 | -2 ft | 0 kts | 167° |
| 2026-04-21 16:01 | 35.84555 | -9.85027 | -2 ft | 0 kts | 167° |
| 2026-04-21 16:01 | 35.84554 | -9.85026 | -2 ft | 0 kts | 167° |
| 2026-04-21 16:02 | 35.84553 | -9.85025 | -2 ft | 0 kts | 167° |
| 2026-04-21 16:02 | 35.84551 | -9.85024 | -2 ft | 0 kts | 167° |
| 2026-04-21 16:02 | 35.84550 | -9.85023 | -2 ft | 0 kts | 167° |
| 2026-04-21 16:02 | 35.84549 | -9.85022 | -2 ft | 0 kts | 168° |
| 2026-04-21 16:03 | 35.84547 | -9.85021 | -2 ft | 0 kts | 168° |
| 2026-04-21 16:03 | 35.84546 | -9.85019 | -2 ft | 0 kts | 168° |
| 2026-04-21 16:03 | 35.84545 | -9.85018 | -2 ft | 0 kts | 168° |
| 2026-04-21 16:03 | 35.84544 | -9.85017 | -2 ft | 0 kts | 168° |
| 2026-04-21 16:04 | 35.84542 | -9.85016 | -2 ft | 0 kts | 168° |
| 2026-04-21 16:04 | 35.84541 | -9.85015 | -2 ft | 0 kts | 168° |
| 2026-04-21 16:04 | 35.84540 | -9.85014 | -2 ft | 0 kts | 169° |
| 2026-04-21 16:04 | 35.84539 | -9.85013 | -2 ft | 0 kts | 169° |
| 2026-04-21 16:05 | 35.84537 | -9.85012 | -2 ft | 0 kts | 169° |
| 2026-04-21 16:05 | 35.84536 | -9.85010 | -2 ft | 0 kts | 169° |
| 2026-04-21 16:05 | 35.84535 | -9.85009 | -2 ft | 0 kts | 169° |
| 2026-04-21 16:05 | 35.84534 | -9.85008 | -2 ft | 0 kts | 169° |
| 2026-04-21 16:06 | 35.84533 | -9.85007 | -2 ft | 0 kts | 169° |
| 2026-04-21 16:06 | 35.84531 | -9.85006 | -2 ft | 0 kts | 169° |
| 2026-04-21 16:06 | 35.84531 | -9.85005 | -2 ft | 0 kts | 170° |
| 2026-04-21 16:06 | 35.84530 | -9.85004 | -2 ft | 0 kts | 170° |
| 2026-04-21 16:07 | 35.84528 | -9.85003 | -2 ft | 0 kts | 170° |
| 2026-04-21 16:07 | 35.84527 | -9.85002 | -2 ft | 0 kts | 170° |
| 2026-04-21 16:07 | 35.84526 | -9.85001 | -2 ft | 0 kts | 170° |
| 2026-04-21 16:07 | 35.84525 | -9.85000 | -2 ft | 0 kts | 171° |
| 2026-04-21 16:08 | 35.84522 | -9.84998 | -2 ft | 0 kts | 171° |
| 2026-04-21 16:08 | 35.84521 | -9.84997 | -2 ft | 0 kts | 171° |
| 2026-04-21 16:08 | 35.84520 | -9.84996 | -2 ft | 0 kts | 171° |
| 2026-04-21 16:09 | 35.84518 | -9.84995 | -2 ft | 0 kts | 171° |
| 2026-04-21 16:09 | 35.84517 | -9.84994 | -2 ft | 0 kts | 171° |
| 2026-04-21 16:09 | 35.84516 | -9.84993 | -2 ft | 0 kts | 171° |
| 2026-04-21 16:09 | 35.84515 | -9.84992 | -2 ft | 0 kts | 172° |
| 2026-04-21 16:10 | 35.84513 | -9.84991 | -2 ft | 0 kts | 172° |
| 2026-04-21 16:10 | 35.84512 | -9.84990 | -2 ft | 0 kts | 172° |
| 2026-04-21 16:10 | 35.84511 | -9.84989 | -2 ft | 0 kts | 172° |
| 2026-04-21 16:10 | 35.84510 | -9.84988 | -2 ft | 0 kts | 172° |
| 2026-04-21 16:11 | 35.84509 | -9.84987 | -2 ft | 0 kts | 172° |
| 2026-04-21 16:11 | 35.84508 | -9.84986 | -2 ft | 0 kts | 172° |
| 2026-04-21 16:11 | 35.84507 | -9.84985 | -2 ft | 0 kts | 172° |
| 2026-04-21 16:11 | 35.84506 | -9.84984 | -2 ft | 0 kts | 173° |
| 2026-04-21 16:12 | 35.84505 | -9.84983 | -2 ft | 0 kts | 173° |
| 2026-04-21 16:12 | 35.84503 | -9.84982 | -2 ft | 0 kts | 173° |
| 2026-04-21 16:12 | 35.84502 | -9.84981 | -2 ft | 0 kts | 173° |